<?xml version="1.0" encoding="UTF-8" standalone="no" ?>
<gpx xmlns="http://www.topografix.com/GPX/1/1" xmlns:xsi="http://www.w3.org/2001/XMLSchema-instance" xsi:schemaLocation="http://www.topografix.com/GPX/1/1 http://www.topografix.com/GPX/1/1/gpx.xsd" version="1.1" creator="VisuGPX - https://www.visugpx.com">
  <metadata>
    <name>Tête de Fer en traversée</name>
  </metadata>
  <trk>
    <name><![CDATA[2023-02-15 08:59:35]]></name>
    <trkseg>
      <trkpt lat="44.45007" lon="6.84859">
        <ele>1689.17</ele>
        <time>2023-02-14T07:11:41Z</time>
      </trkpt>
      <trkpt lat="44.45006" lon="6.84868">
        <ele>1688.21</ele>
        <time>2023-02-14T07:12:56Z</time>
      </trkpt>
      <trkpt lat="44.45007" lon="6.84862">
        <ele>1688.21</ele>
        <time>2023-02-14T07:15:30Z</time>
      </trkpt>
      <trkpt lat="44.45007" lon="6.84862">
        <ele>1689.65</ele>
        <time>2023-02-14T07:16:59Z</time>
      </trkpt>
      <trkpt lat="44.44995" lon="6.84889">
        <ele>1689.65</ele>
        <time>2023-02-14T07:17:40Z</time>
      </trkpt>
      <trkpt lat="44.44986" lon="6.84891">
        <ele>1689.65</ele>
        <time>2023-02-14T07:19:03Z</time>
      </trkpt>
      <trkpt lat="44.44979" lon="6.84904">
        <ele>1688.69</ele>
        <time>2023-02-14T07:20:43Z</time>
      </trkpt>
      <trkpt lat="44.44969" lon="6.8492">
        <ele>1688.21</ele>
        <time>2023-02-14T07:20:59Z</time>
      </trkpt>
      <trkpt lat="44.44957" lon="6.8493">
        <ele>1688.21</ele>
        <time>2023-02-14T07:21:15Z</time>
      </trkpt>
      <trkpt lat="44.4494" lon="6.84939">
        <ele>1687.25</ele>
        <time>2023-02-14T07:21:32Z</time>
      </trkpt>
      <trkpt lat="44.44915" lon="6.84963">
        <ele>1685.81</ele>
        <time>2023-02-14T07:22:01Z</time>
      </trkpt>
      <trkpt lat="44.44899" lon="6.84981">
        <ele>1684.85</ele>
        <time>2023-02-14T07:22:21Z</time>
      </trkpt>
      <trkpt lat="44.44881" lon="6.85003">
        <ele>1683.89</ele>
        <time>2023-02-14T07:22:43Z</time>
      </trkpt>
      <trkpt lat="44.44862" lon="6.8503">
        <ele>1682.93</ele>
        <time>2023-02-14T07:23:07Z</time>
      </trkpt>
      <trkpt lat="44.44853" lon="6.85049">
        <ele>1682.44</ele>
        <time>2023-02-14T07:23:24Z</time>
      </trkpt>
      <trkpt lat="44.44837" lon="6.85084">
        <ele>1681</ele>
        <time>2023-02-14T07:23:50Z</time>
      </trkpt>
      <trkpt lat="44.44827" lon="6.85112">
        <ele>1680.04</ele>
        <time>2023-02-14T07:24:11Z</time>
      </trkpt>
      <trkpt lat="44.4482" lon="6.85131">
        <ele>1679.56</ele>
        <time>2023-02-14T07:24:25Z</time>
      </trkpt>
      <trkpt lat="44.44809" lon="6.8517">
        <ele>1679.56</ele>
        <time>2023-02-14T07:24:52Z</time>
      </trkpt>
      <trkpt lat="44.44804" lon="6.85193">
        <ele>1680.04</ele>
        <time>2023-02-14T07:25:10Z</time>
      </trkpt>
      <trkpt lat="44.44796" lon="6.85209">
        <ele>1681.48</ele>
        <time>2023-02-14T07:25:30Z</time>
      </trkpt>
      <trkpt lat="44.44785" lon="6.85215">
        <ele>1680.04</ele>
        <time>2023-02-14T07:25:41Z</time>
      </trkpt>
      <trkpt lat="44.44759" lon="6.85214">
        <ele>1679.08</ele>
        <time>2023-02-14T07:26:05Z</time>
      </trkpt>
      <trkpt lat="44.44748" lon="6.85214">
        <ele>1680.52</ele>
        <time>2023-02-14T07:26:16Z</time>
      </trkpt>
      <trkpt lat="44.44725" lon="6.85214">
        <ele>1680.52</ele>
        <time>2023-02-14T07:26:38Z</time>
      </trkpt>
      <trkpt lat="44.44711" lon="6.85221">
        <ele>1680.52</ele>
        <time>2023-02-14T07:26:55Z</time>
      </trkpt>
      <trkpt lat="44.44685" lon="6.85244">
        <ele>1680.52</ele>
        <time>2023-02-14T07:27:19Z</time>
      </trkpt>
      <trkpt lat="44.44674" lon="6.85256">
        <ele>1680.52</ele>
        <time>2023-02-14T07:27:32Z</time>
      </trkpt>
      <trkpt lat="44.44658" lon="6.85269">
        <ele>1681</ele>
        <time>2023-02-14T07:27:50Z</time>
      </trkpt>
      <trkpt lat="44.44647" lon="6.85275">
        <ele>1681.48</ele>
        <time>2023-02-14T07:28:04Z</time>
      </trkpt>
      <trkpt lat="44.44637" lon="6.85271">
        <ele>1681.48</ele>
        <time>2023-02-14T07:28:20Z</time>
      </trkpt>
      <trkpt lat="44.44618" lon="6.85282">
        <ele>1681.96</ele>
        <time>2023-02-14T07:28:36Z</time>
      </trkpt>
      <trkpt lat="44.44596" lon="6.85284">
        <ele>1680.52</ele>
        <time>2023-02-14T07:28:56Z</time>
      </trkpt>
      <trkpt lat="44.4458" lon="6.85273">
        <ele>1681.96</ele>
        <time>2023-02-14T07:29:12Z</time>
      </trkpt>
      <trkpt lat="44.4456" lon="6.85266">
        <ele>1681.96</ele>
        <time>2023-02-14T07:29:30Z</time>
      </trkpt>
      <trkpt lat="44.44548" lon="6.85267">
        <ele>1681.96</ele>
        <time>2023-02-14T07:29:42Z</time>
      </trkpt>
      <trkpt lat="44.44533" lon="6.85269">
        <ele>1682.44</ele>
        <time>2023-02-14T07:29:55Z</time>
      </trkpt>
      <trkpt lat="44.44526" lon="6.8526">
        <ele>1683.89</ele>
        <time>2023-02-14T07:30:15Z</time>
      </trkpt>
      <trkpt lat="44.44526" lon="6.8524">
        <ele>1684.85</ele>
        <time>2023-02-14T07:30:31Z</time>
      </trkpt>
      <trkpt lat="44.44522" lon="6.85229">
        <ele>1685.33</ele>
        <time>2023-02-14T07:30:42Z</time>
      </trkpt>
      <trkpt lat="44.44512" lon="6.85206">
        <ele>1685.81</ele>
        <time>2023-02-14T07:31:00Z</time>
      </trkpt>
      <trkpt lat="44.44496" lon="6.85215">
        <ele>1686.29</ele>
        <time>2023-02-14T07:31:16Z</time>
      </trkpt>
      <trkpt lat="44.4447" lon="6.85237">
        <ele>1684.37</ele>
        <time>2023-02-14T07:31:42Z</time>
      </trkpt>
      <trkpt lat="44.44449" lon="6.85263">
        <ele>1684.37</ele>
        <time>2023-02-14T07:32:08Z</time>
      </trkpt>
      <trkpt lat="44.44436" lon="6.85279">
        <ele>1684.37</ele>
        <time>2023-02-14T07:32:25Z</time>
      </trkpt>
      <trkpt lat="44.44427" lon="6.85287">
        <ele>1684.37</ele>
        <time>2023-02-14T07:32:35Z</time>
      </trkpt>
      <trkpt lat="44.44417" lon="6.85294">
        <ele>1686.77</ele>
        <time>2023-02-14T07:32:49Z</time>
      </trkpt>
      <trkpt lat="44.44403" lon="6.85302">
        <ele>1686.77</ele>
        <time>2023-02-14T07:33:05Z</time>
      </trkpt>
      <trkpt lat="44.44391" lon="6.8531">
        <ele>1686.77</ele>
        <time>2023-02-14T07:33:18Z</time>
      </trkpt>
      <trkpt lat="44.44382" lon="6.85318">
        <ele>1686.77</ele>
        <time>2023-02-14T07:33:28Z</time>
      </trkpt>
      <trkpt lat="44.44369" lon="6.85331">
        <ele>1686.77</ele>
        <time>2023-02-14T07:33:43Z</time>
      </trkpt>
      <trkpt lat="44.44348" lon="6.85354">
        <ele>1687.25</ele>
        <time>2023-02-14T07:34:07Z</time>
      </trkpt>
      <trkpt lat="44.44337" lon="6.85373">
        <ele>1687.25</ele>
        <time>2023-02-14T07:34:23Z</time>
      </trkpt>
      <trkpt lat="44.44328" lon="6.85388">
        <ele>1687.73</ele>
        <time>2023-02-14T07:34:37Z</time>
      </trkpt>
      <trkpt lat="44.44318" lon="6.85397">
        <ele>1689.65</ele>
        <time>2023-02-14T07:34:52Z</time>
      </trkpt>
      <trkpt lat="44.44308" lon="6.854">
        <ele>1691.1</ele>
        <time>2023-02-14T07:35:06Z</time>
      </trkpt>
      <trkpt lat="44.44296" lon="6.85411">
        <ele>1693.98</ele>
        <time>2023-02-14T07:35:25Z</time>
      </trkpt>
      <trkpt lat="44.44284" lon="6.85428">
        <ele>1693.5</ele>
        <time>2023-02-14T07:35:41Z</time>
      </trkpt>
      <trkpt lat="44.44274" lon="6.8547">
        <ele>1691.58</ele>
        <time>2023-02-14T07:36:09Z</time>
      </trkpt>
      <trkpt lat="44.44266" lon="6.85487">
        <ele>1693.02</ele>
        <time>2023-02-14T07:36:24Z</time>
      </trkpt>
      <trkpt lat="44.44259" lon="6.85499">
        <ele>1693.98</ele>
        <time>2023-02-14T07:36:38Z</time>
      </trkpt>
      <trkpt lat="44.44247" lon="6.85516">
        <ele>1694.46</ele>
        <time>2023-02-14T07:36:57Z</time>
      </trkpt>
      <trkpt lat="44.44239" lon="6.85526">
        <ele>1696.38</ele>
        <time>2023-02-14T07:37:10Z</time>
      </trkpt>
      <trkpt lat="44.44227" lon="6.85544">
        <ele>1697.34</ele>
        <time>2023-02-14T07:37:27Z</time>
      </trkpt>
      <trkpt lat="44.44218" lon="6.85564">
        <ele>1697.34</ele>
        <time>2023-02-14T07:37:42Z</time>
      </trkpt>
      <trkpt lat="44.44213" lon="6.85576">
        <ele>1695.9</ele>
        <time>2023-02-14T07:37:51Z</time>
      </trkpt>
      <trkpt lat="44.44203" lon="6.85597">
        <ele>1695.9</ele>
        <time>2023-02-14T07:38:07Z</time>
      </trkpt>
      <trkpt lat="44.44181" lon="6.85652">
        <ele>1693.98</ele>
        <time>2023-02-14T07:38:45Z</time>
      </trkpt>
      <trkpt lat="44.44151" lon="6.85667">
        <ele>1693.98</ele>
        <time>2023-02-14T07:39:15Z</time>
      </trkpt>
      <trkpt lat="44.44147" lon="6.85677">
        <ele>1695.42</ele>
        <time>2023-02-14T07:39:39Z</time>
      </trkpt>
      <trkpt lat="44.44139" lon="6.85672">
        <ele>1695.42</ele>
        <time>2023-02-14T07:41:01Z</time>
      </trkpt>
      <trkpt lat="44.44138" lon="6.85671">
        <ele>1693.5</ele>
        <time>2023-02-14T07:42:32Z</time>
      </trkpt>
      <trkpt lat="44.44138" lon="6.85671">
        <ele>1695.9</ele>
        <time>2023-02-14T07:44:47Z</time>
      </trkpt>
      <trkpt lat="44.44119" lon="6.85674">
        <ele>1697.83</ele>
        <time>2023-02-14T07:45:19Z</time>
      </trkpt>
      <trkpt lat="44.44107" lon="6.85679">
        <ele>1699.27</ele>
        <time>2023-02-14T07:45:36Z</time>
      </trkpt>
      <trkpt lat="44.44095" lon="6.85685">
        <ele>1700.23</ele>
        <time>2023-02-14T07:45:51Z</time>
      </trkpt>
      <trkpt lat="44.44084" lon="6.85689">
        <ele>1701.67</ele>
        <time>2023-02-14T07:46:05Z</time>
      </trkpt>
      <trkpt lat="44.44075" lon="6.85691">
        <ele>1703.11</ele>
        <time>2023-02-14T07:46:19Z</time>
      </trkpt>
      <trkpt lat="44.44065" lon="6.85693">
        <ele>1704.07</ele>
        <time>2023-02-14T07:46:33Z</time>
      </trkpt>
      <trkpt lat="44.44052" lon="6.85694">
        <ele>1706</ele>
        <time>2023-02-14T07:46:50Z</time>
      </trkpt>
      <trkpt lat="44.4404" lon="6.85697">
        <ele>1706.96</ele>
        <time>2023-02-14T07:47:05Z</time>
      </trkpt>
      <trkpt lat="44.44028" lon="6.85701">
        <ele>1707.92</ele>
        <time>2023-02-14T07:47:19Z</time>
      </trkpt>
      <trkpt lat="44.4402" lon="6.85712">
        <ele>1709.84</ele>
        <time>2023-02-14T07:47:37Z</time>
      </trkpt>
      <trkpt lat="44.44011" lon="6.85716">
        <ele>1710.32</ele>
        <time>2023-02-14T07:47:53Z</time>
      </trkpt>
      <trkpt lat="44.44002" lon="6.85711">
        <ele>1711.76</ele>
        <time>2023-02-14T07:48:44Z</time>
      </trkpt>
      <trkpt lat="44.43995" lon="6.85717">
        <ele>1713.21</ele>
        <time>2023-02-14T07:49:58Z</time>
      </trkpt>
      <trkpt lat="44.43985" lon="6.85719">
        <ele>1716.09</ele>
        <time>2023-02-14T07:50:23Z</time>
      </trkpt>
      <trkpt lat="44.43975" lon="6.85706">
        <ele>1718.97</ele>
        <time>2023-02-14T07:50:50Z</time>
      </trkpt>
      <trkpt lat="44.43964" lon="6.85705">
        <ele>1720.9</ele>
        <time>2023-02-14T07:51:05Z</time>
      </trkpt>
      <trkpt lat="44.4395" lon="6.85701">
        <ele>1723.78</ele>
        <time>2023-02-14T07:51:33Z</time>
      </trkpt>
      <trkpt lat="44.43938" lon="6.85704">
        <ele>1726.67</ele>
        <time>2023-02-14T07:52:00Z</time>
      </trkpt>
      <trkpt lat="44.43928" lon="6.85699">
        <ele>1730.51</ele>
        <time>2023-02-14T07:52:30Z</time>
      </trkpt>
      <trkpt lat="44.43918" lon="6.85688">
        <ele>1733.88</ele>
        <time>2023-02-14T07:52:57Z</time>
      </trkpt>
      <trkpt lat="44.43913" lon="6.85674">
        <ele>1735.8</ele>
        <time>2023-02-14T07:53:24Z</time>
      </trkpt>
      <trkpt lat="44.43907" lon="6.8566">
        <ele>1739.16</ele>
        <time>2023-02-14T07:53:56Z</time>
      </trkpt>
      <trkpt lat="44.43899" lon="6.85656">
        <ele>1742.53</ele>
        <time>2023-02-14T07:54:19Z</time>
      </trkpt>
      <trkpt lat="44.43885" lon="6.85655">
        <ele>1743.01</ele>
        <time>2023-02-14T07:54:45Z</time>
      </trkpt>
      <trkpt lat="44.43877" lon="6.85666">
        <ele>1746.85</ele>
        <time>2023-02-14T07:55:38Z</time>
      </trkpt>
      <trkpt lat="44.43872" lon="6.85676">
        <ele>1750.7</ele>
        <time>2023-02-14T07:56:07Z</time>
      </trkpt>
      <trkpt lat="44.43875" lon="6.85688">
        <ele>1753.1</ele>
        <time>2023-02-14T07:56:47Z</time>
      </trkpt>
      <trkpt lat="44.43861" lon="6.85698">
        <ele>1759.35</ele>
        <time>2023-02-14T07:57:27Z</time>
      </trkpt>
      <trkpt lat="44.4386" lon="6.8571">
        <ele>1760.79</ele>
        <time>2023-02-14T07:57:57Z</time>
      </trkpt>
      <trkpt lat="44.43855" lon="6.85715">
        <ele>1761.27</ele>
        <time>2023-02-14T07:59:00Z</time>
      </trkpt>
      <trkpt lat="44.43852" lon="6.85702">
        <ele>1763.68</ele>
        <time>2023-02-14T07:59:39Z</time>
      </trkpt>
      <trkpt lat="44.4385" lon="6.85681">
        <ele>1767.04</ele>
        <time>2023-02-14T08:00:05Z</time>
      </trkpt>
      <trkpt lat="44.43838" lon="6.85685">
        <ele>1771.85</ele>
        <time>2023-02-14T08:00:51Z</time>
      </trkpt>
      <trkpt lat="44.43837" lon="6.85687">
        <ele>1777.13</ele>
        <time>2023-02-14T08:01:32Z</time>
      </trkpt>
      <trkpt lat="44.43826" lon="6.85696">
        <ele>1782.9</ele>
        <time>2023-02-14T08:02:12Z</time>
      </trkpt>
      <trkpt lat="44.4382" lon="6.8568">
        <ele>1787.71</ele>
        <time>2023-02-14T08:03:01Z</time>
      </trkpt>
      <trkpt lat="44.43818" lon="6.85652">
        <ele>1792.03</ele>
        <time>2023-02-14T08:03:30Z</time>
      </trkpt>
      <trkpt lat="44.43808" lon="6.85653">
        <ele>1796.36</ele>
        <time>2023-02-14T08:04:12Z</time>
      </trkpt>
      <trkpt lat="44.43801" lon="6.85668">
        <ele>1798.76</ele>
        <time>2023-02-14T08:04:36Z</time>
      </trkpt>
      <trkpt lat="44.43797" lon="6.85657">
        <ele>1803.09</ele>
        <time>2023-02-14T08:05:06Z</time>
      </trkpt>
      <trkpt lat="44.43788" lon="6.85662">
        <ele>1806.94</ele>
        <time>2023-02-14T08:05:45Z</time>
      </trkpt>
      <trkpt lat="44.43779" lon="6.85676">
        <ele>1811.26</ele>
        <time>2023-02-14T08:06:15Z</time>
      </trkpt>
      <trkpt lat="44.43772" lon="6.85687">
        <ele>1814.15</ele>
        <time>2023-02-14T08:06:38Z</time>
      </trkpt>
      <trkpt lat="44.43764" lon="6.85689">
        <ele>1817.51</ele>
        <time>2023-02-14T08:07:06Z</time>
      </trkpt>
      <trkpt lat="44.43764" lon="6.85668">
        <ele>1821.84</ele>
        <time>2023-02-14T08:07:42Z</time>
      </trkpt>
      <trkpt lat="44.43758" lon="6.85666">
        <ele>1826.16</ele>
        <time>2023-02-14T08:08:21Z</time>
      </trkpt>
      <trkpt lat="44.43749" lon="6.8568">
        <ele>1829.05</ele>
        <time>2023-02-14T08:08:50Z</time>
      </trkpt>
      <trkpt lat="44.43745" lon="6.85693">
        <ele>1832.41</ele>
        <time>2023-02-14T08:09:17Z</time>
      </trkpt>
      <trkpt lat="44.43737" lon="6.85693">
        <ele>1835.77</ele>
        <time>2023-02-14T08:09:48Z</time>
      </trkpt>
      <trkpt lat="44.43733" lon="6.85678">
        <ele>1840.1</ele>
        <time>2023-02-14T08:10:18Z</time>
      </trkpt>
      <trkpt lat="44.43733" lon="6.85664">
        <ele>1842.98</ele>
        <time>2023-02-14T08:10:47Z</time>
      </trkpt>
      <trkpt lat="44.43721" lon="6.85673">
        <ele>1847.79</ele>
        <time>2023-02-14T08:11:35Z</time>
      </trkpt>
      <trkpt lat="44.43715" lon="6.85688">
        <ele>1850.68</ele>
        <time>2023-02-14T08:12:05Z</time>
      </trkpt>
      <trkpt lat="44.43707" lon="6.85675">
        <ele>1855.48</ele>
        <time>2023-02-14T08:12:39Z</time>
      </trkpt>
      <trkpt lat="44.43706" lon="6.85662">
        <ele>1857.89</ele>
        <time>2023-02-14T08:12:59Z</time>
      </trkpt>
      <trkpt lat="44.43704" lon="6.85649">
        <ele>1861.25</ele>
        <time>2023-02-14T08:13:21Z</time>
      </trkpt>
      <trkpt lat="44.43696" lon="6.85636">
        <ele>1865.09</ele>
        <time>2023-02-14T08:13:51Z</time>
      </trkpt>
      <trkpt lat="44.43691" lon="6.85624">
        <ele>1869.42</ele>
        <time>2023-02-14T08:14:20Z</time>
      </trkpt>
      <trkpt lat="44.43703" lon="6.85606">
        <ele>1871.82</ele>
        <time>2023-02-14T08:14:54Z</time>
      </trkpt>
      <trkpt lat="44.43694" lon="6.85599">
        <ele>1871.82</ele>
        <time>2023-02-14T08:15:54Z</time>
      </trkpt>
      <trkpt lat="44.43691" lon="6.85606">
        <ele>1871.82</ele>
        <time>2023-02-14T08:18:09Z</time>
      </trkpt>
      <trkpt lat="44.43684" lon="6.85584">
        <ele>1875.67</ele>
        <time>2023-02-14T08:18:52Z</time>
      </trkpt>
      <trkpt lat="44.43672" lon="6.85567">
        <ele>1879.03</ele>
        <time>2023-02-14T08:19:22Z</time>
      </trkpt>
      <trkpt lat="44.43665" lon="6.85553">
        <ele>1880.48</ele>
        <time>2023-02-14T08:19:40Z</time>
      </trkpt>
      <trkpt lat="44.43658" lon="6.8554">
        <ele>1882.88</ele>
        <time>2023-02-14T08:19:57Z</time>
      </trkpt>
      <trkpt lat="44.43652" lon="6.85524">
        <ele>1885.76</ele>
        <time>2023-02-14T08:20:12Z</time>
      </trkpt>
      <trkpt lat="44.43644" lon="6.85513">
        <ele>1887.21</ele>
        <time>2023-02-14T08:20:27Z</time>
      </trkpt>
      <trkpt lat="44.43632" lon="6.855">
        <ele>1890.57</ele>
        <time>2023-02-14T08:20:56Z</time>
      </trkpt>
      <trkpt lat="44.43627" lon="6.85487">
        <ele>1892.49</ele>
        <time>2023-02-14T08:21:13Z</time>
      </trkpt>
      <trkpt lat="44.43621" lon="6.85477">
        <ele>1893.45</ele>
        <time>2023-02-14T08:21:27Z</time>
      </trkpt>
      <trkpt lat="44.43613" lon="6.85468">
        <ele>1894.9</ele>
        <time>2023-02-14T08:21:39Z</time>
      </trkpt>
      <trkpt lat="44.43598" lon="6.85452">
        <ele>1898.26</ele>
        <time>2023-02-14T08:22:05Z</time>
      </trkpt>
      <trkpt lat="44.43584" lon="6.85443">
        <ele>1902.11</ele>
        <time>2023-02-14T08:22:41Z</time>
      </trkpt>
      <trkpt lat="44.43573" lon="6.85435">
        <ele>1904.03</ele>
        <time>2023-02-14T08:22:57Z</time>
      </trkpt>
      <trkpt lat="44.43555" lon="6.85423">
        <ele>1905.95</ele>
        <time>2023-02-14T08:23:23Z</time>
      </trkpt>
      <trkpt lat="44.43549" lon="6.854">
        <ele>1907.39</ele>
        <time>2023-02-14T08:23:58Z</time>
      </trkpt>
      <trkpt lat="44.4355" lon="6.85386">
        <ele>1910.28</ele>
        <time>2023-02-14T08:24:26Z</time>
      </trkpt>
      <trkpt lat="44.43541" lon="6.85379">
        <ele>1915.08</ele>
        <time>2023-02-14T08:25:01Z</time>
      </trkpt>
      <trkpt lat="44.43528" lon="6.85371">
        <ele>1920.85</ele>
        <time>2023-02-14T08:25:39Z</time>
      </trkpt>
      <trkpt lat="44.43524" lon="6.85365">
        <ele>1925.18</ele>
        <time>2023-02-14T08:26:18Z</time>
      </trkpt>
      <trkpt lat="44.43511" lon="6.85358">
        <ele>1930.46</ele>
        <time>2023-02-14T08:26:58Z</time>
      </trkpt>
      <trkpt lat="44.43507" lon="6.85348">
        <ele>1935.27</ele>
        <time>2023-02-14T08:27:21Z</time>
      </trkpt>
      <trkpt lat="44.43495" lon="6.85332">
        <ele>1938.64</ele>
        <time>2023-02-14T08:27:50Z</time>
      </trkpt>
      <trkpt lat="44.43485" lon="6.85318">
        <ele>1942.48</ele>
        <time>2023-02-14T08:28:22Z</time>
      </trkpt>
      <trkpt lat="44.43475" lon="6.85307">
        <ele>1944.4</ele>
        <time>2023-02-14T08:28:35Z</time>
      </trkpt>
      <trkpt lat="44.43466" lon="6.85296">
        <ele>1946.33</ele>
        <time>2023-02-14T08:28:48Z</time>
      </trkpt>
      <trkpt lat="44.43455" lon="6.85282">
        <ele>1948.25</ele>
        <time>2023-02-14T08:29:02Z</time>
      </trkpt>
      <trkpt lat="44.43443" lon="6.85265">
        <ele>1949.21</ele>
        <time>2023-02-14T08:29:15Z</time>
      </trkpt>
      <trkpt lat="44.43429" lon="6.85246">
        <ele>1951.13</ele>
        <time>2023-02-14T08:29:31Z</time>
      </trkpt>
      <trkpt lat="44.43418" lon="6.85231">
        <ele>1952.57</ele>
        <time>2023-02-14T08:29:53Z</time>
      </trkpt>
      <trkpt lat="44.43414" lon="6.85218">
        <ele>1954.5</ele>
        <time>2023-02-14T08:30:07Z</time>
      </trkpt>
      <trkpt lat="44.43407" lon="6.85203">
        <ele>1955.46</ele>
        <time>2023-02-14T08:30:22Z</time>
      </trkpt>
      <trkpt lat="44.43396" lon="6.8519">
        <ele>1956.42</ele>
        <time>2023-02-14T08:30:38Z</time>
      </trkpt>
      <trkpt lat="44.4339" lon="6.8518">
        <ele>1957.86</ele>
        <time>2023-02-14T08:30:51Z</time>
      </trkpt>
      <trkpt lat="44.43381" lon="6.85168">
        <ele>1958.82</ele>
        <time>2023-02-14T08:31:06Z</time>
      </trkpt>
      <trkpt lat="44.43377" lon="6.85153">
        <ele>1959.78</ele>
        <time>2023-02-14T08:31:20Z</time>
      </trkpt>
      <trkpt lat="44.43362" lon="6.85129">
        <ele>1961.23</ele>
        <time>2023-02-14T08:31:44Z</time>
      </trkpt>
      <trkpt lat="44.43352" lon="6.8512">
        <ele>1962.67</ele>
        <time>2023-02-14T08:31:59Z</time>
      </trkpt>
      <trkpt lat="44.43335" lon="6.85106">
        <ele>1964.11</ele>
        <time>2023-02-14T08:32:28Z</time>
      </trkpt>
      <trkpt lat="44.43326" lon="6.85098">
        <ele>1964.59</ele>
        <time>2023-02-14T08:32:42Z</time>
      </trkpt>
      <trkpt lat="44.43318" lon="6.85087">
        <ele>1966.03</ele>
        <time>2023-02-14T08:32:56Z</time>
      </trkpt>
      <trkpt lat="44.43308" lon="6.85082">
        <ele>1966.99</ele>
        <time>2023-02-14T08:33:10Z</time>
      </trkpt>
      <trkpt lat="44.43288" lon="6.8506">
        <ele>1969.4</ele>
        <time>2023-02-14T08:33:43Z</time>
      </trkpt>
      <trkpt lat="44.4327" lon="6.85046">
        <ele>1971.32</ele>
        <time>2023-02-14T08:34:12Z</time>
      </trkpt>
      <trkpt lat="44.4326" lon="6.85035">
        <ele>1972.76</ele>
        <time>2023-02-14T08:34:28Z</time>
      </trkpt>
      <trkpt lat="44.43249" lon="6.85026">
        <ele>1973.72</ele>
        <time>2023-02-14T08:34:44Z</time>
      </trkpt>
      <trkpt lat="44.43243" lon="6.85012">
        <ele>1975.17</ele>
        <time>2023-02-14T08:35:01Z</time>
      </trkpt>
      <trkpt lat="44.43233" lon="6.84999">
        <ele>1976.61</ele>
        <time>2023-02-14T08:35:18Z</time>
      </trkpt>
      <trkpt lat="44.43221" lon="6.84985">
        <ele>1978.05</ele>
        <time>2023-02-14T08:35:38Z</time>
      </trkpt>
      <trkpt lat="44.43211" lon="6.8498">
        <ele>1979.49</ele>
        <time>2023-02-14T08:35:54Z</time>
      </trkpt>
      <trkpt lat="44.43201" lon="6.84971">
        <ele>1981.41</ele>
        <time>2023-02-14T08:36:09Z</time>
      </trkpt>
      <trkpt lat="44.43189" lon="6.84965">
        <ele>1982.38</ele>
        <time>2023-02-14T08:36:25Z</time>
      </trkpt>
      <trkpt lat="44.4318" lon="6.84959">
        <ele>1984.78</ele>
        <time>2023-02-14T08:36:40Z</time>
      </trkpt>
      <trkpt lat="44.43164" lon="6.84948">
        <ele>1988.14</ele>
        <time>2023-02-14T08:37:08Z</time>
      </trkpt>
      <trkpt lat="44.43155" lon="6.8494">
        <ele>1989.59</ele>
        <time>2023-02-14T08:37:23Z</time>
      </trkpt>
      <trkpt lat="44.43144" lon="6.84931">
        <ele>1990.07</ele>
        <time>2023-02-14T08:37:40Z</time>
      </trkpt>
      <trkpt lat="44.43138" lon="6.84921">
        <ele>1991.99</ele>
        <time>2023-02-14T08:37:56Z</time>
      </trkpt>
      <trkpt lat="44.43129" lon="6.84909">
        <ele>1993.91</ele>
        <time>2023-02-14T08:38:31Z</time>
      </trkpt>
      <trkpt lat="44.43118" lon="6.84896">
        <ele>1994.87</ele>
        <time>2023-02-14T08:38:50Z</time>
      </trkpt>
      <trkpt lat="44.43109" lon="6.84882">
        <ele>1996.32</ele>
        <time>2023-02-14T08:39:06Z</time>
      </trkpt>
      <trkpt lat="44.431" lon="6.84868">
        <ele>1997.76</ele>
        <time>2023-02-14T08:39:22Z</time>
      </trkpt>
      <trkpt lat="44.43088" lon="6.84857">
        <ele>1999.2</ele>
        <time>2023-02-14T08:39:39Z</time>
      </trkpt>
      <trkpt lat="44.43077" lon="6.84846">
        <ele>2000.16</ele>
        <time>2023-02-14T08:39:57Z</time>
      </trkpt>
      <trkpt lat="44.43066" lon="6.84838">
        <ele>2002.08</ele>
        <time>2023-02-14T08:40:14Z</time>
      </trkpt>
      <trkpt lat="44.43051" lon="6.84821">
        <ele>2004.97</ele>
        <time>2023-02-14T08:40:44Z</time>
      </trkpt>
      <trkpt lat="44.43043" lon="6.84812">
        <ele>2006.41</ele>
        <time>2023-02-14T08:40:59Z</time>
      </trkpt>
      <trkpt lat="44.43035" lon="6.84801">
        <ele>2007.37</ele>
        <time>2023-02-14T08:41:14Z</time>
      </trkpt>
      <trkpt lat="44.43023" lon="6.8479">
        <ele>2008.81</ele>
        <time>2023-02-14T08:41:31Z</time>
      </trkpt>
      <trkpt lat="44.43015" lon="6.84779">
        <ele>2009.77</ele>
        <time>2023-02-14T08:41:47Z</time>
      </trkpt>
      <trkpt lat="44.43007" lon="6.84766">
        <ele>2011.22</ele>
        <time>2023-02-14T08:42:03Z</time>
      </trkpt>
      <trkpt lat="44.43" lon="6.84752">
        <ele>2011.7</ele>
        <time>2023-02-14T08:42:23Z</time>
      </trkpt>
      <trkpt lat="44.42998" lon="6.84747">
        <ele>2011.22</ele>
        <time>2023-02-14T08:43:47Z</time>
      </trkpt>
      <trkpt lat="44.43002" lon="6.84739">
        <ele>2011.22</ele>
        <time>2023-02-14T08:45:25Z</time>
      </trkpt>
      <trkpt lat="44.42996" lon="6.84729">
        <ele>2011.22</ele>
        <time>2023-02-14T08:45:58Z</time>
      </trkpt>
      <trkpt lat="44.42991" lon="6.84718">
        <ele>2012.18</ele>
        <time>2023-02-14T08:46:13Z</time>
      </trkpt>
      <trkpt lat="44.42985" lon="6.84707">
        <ele>2013.14</ele>
        <time>2023-02-14T08:46:28Z</time>
      </trkpt>
      <trkpt lat="44.4298" lon="6.84689">
        <ele>2015.06</ele>
        <time>2023-02-14T08:46:55Z</time>
      </trkpt>
      <trkpt lat="44.42975" lon="6.84677">
        <ele>2016.02</ele>
        <time>2023-02-14T08:47:09Z</time>
      </trkpt>
      <trkpt lat="44.42964" lon="6.84669">
        <ele>2019.39</ele>
        <time>2023-02-14T08:47:36Z</time>
      </trkpt>
      <trkpt lat="44.42953" lon="6.84663">
        <ele>2022.27</ele>
        <time>2023-02-14T08:48:04Z</time>
      </trkpt>
      <trkpt lat="44.42946" lon="6.84652">
        <ele>2024.19</ele>
        <time>2023-02-14T08:48:33Z</time>
      </trkpt>
      <trkpt lat="44.42937" lon="6.84648">
        <ele>2028.04</ele>
        <time>2023-02-14T08:49:10Z</time>
      </trkpt>
      <trkpt lat="44.42931" lon="6.8465">
        <ele>2031.88</ele>
        <time>2023-02-14T08:49:45Z</time>
      </trkpt>
      <trkpt lat="44.42922" lon="6.84648">
        <ele>2036.69</ele>
        <time>2023-02-14T08:50:26Z</time>
      </trkpt>
      <trkpt lat="44.42911" lon="6.84637">
        <ele>2040.05</ele>
        <time>2023-02-14T08:50:54Z</time>
      </trkpt>
      <trkpt lat="44.42903" lon="6.84619">
        <ele>2043.9</ele>
        <time>2023-02-14T08:51:31Z</time>
      </trkpt>
      <trkpt lat="44.42899" lon="6.84601">
        <ele>2047.26</ele>
        <time>2023-02-14T08:51:58Z</time>
      </trkpt>
      <trkpt lat="44.42897" lon="6.84587">
        <ele>2049.67</ele>
        <time>2023-02-14T08:52:24Z</time>
      </trkpt>
      <trkpt lat="44.42897" lon="6.84574">
        <ele>2051.11</ele>
        <time>2023-02-14T08:52:40Z</time>
      </trkpt>
      <trkpt lat="44.42892" lon="6.84554">
        <ele>2053.99</ele>
        <time>2023-02-14T08:53:10Z</time>
      </trkpt>
      <trkpt lat="44.42889" lon="6.84535">
        <ele>2057.36</ele>
        <time>2023-02-14T08:53:37Z</time>
      </trkpt>
      <trkpt lat="44.42889" lon="6.84522">
        <ele>2060.72</ele>
        <time>2023-02-14T08:54:04Z</time>
      </trkpt>
      <trkpt lat="44.42888" lon="6.84508">
        <ele>2064.09</ele>
        <time>2023-02-14T08:54:38Z</time>
      </trkpt>
      <trkpt lat="44.42886" lon="6.84493">
        <ele>2067.93</ele>
        <time>2023-02-14T08:55:15Z</time>
      </trkpt>
      <trkpt lat="44.42886" lon="6.84481">
        <ele>2072.74</ele>
        <time>2023-02-14T08:56:02Z</time>
      </trkpt>
      <trkpt lat="44.42875" lon="6.84474">
        <ele>2077.55</ele>
        <time>2023-02-14T08:56:49Z</time>
      </trkpt>
      <trkpt lat="44.42873" lon="6.84457">
        <ele>2080.91</ele>
        <time>2023-02-14T08:57:25Z</time>
      </trkpt>
      <trkpt lat="44.42873" lon="6.84443">
        <ele>2085.24</ele>
        <time>2023-02-14T08:57:57Z</time>
      </trkpt>
      <trkpt lat="44.42862" lon="6.84443">
        <ele>2090.52</ele>
        <time>2023-02-14T08:58:47Z</time>
      </trkpt>
      <trkpt lat="44.42853" lon="6.84442">
        <ele>2094.85</ele>
        <time>2023-02-14T08:59:19Z</time>
      </trkpt>
      <trkpt lat="44.42848" lon="6.8444">
        <ele>2097.73</ele>
        <time>2023-02-14T08:59:55Z</time>
      </trkpt>
      <trkpt lat="44.42837" lon="6.84445">
        <ele>2100.62</ele>
        <time>2023-02-14T09:00:19Z</time>
      </trkpt>
      <trkpt lat="44.42825" lon="6.84445">
        <ele>2103.98</ele>
        <time>2023-02-14T09:00:50Z</time>
      </trkpt>
      <trkpt lat="44.42819" lon="6.84436">
        <ele>2109.75</ele>
        <time>2023-02-14T09:01:37Z</time>
      </trkpt>
      <trkpt lat="44.42811" lon="6.84444">
        <ele>2112.15</ele>
        <time>2023-02-14T09:02:00Z</time>
      </trkpt>
      <trkpt lat="44.42802" lon="6.84455">
        <ele>2114.56</ele>
        <time>2023-02-14T09:02:28Z</time>
      </trkpt>
      <trkpt lat="44.42794" lon="6.84466">
        <ele>2117.44</ele>
        <time>2023-02-14T09:02:54Z</time>
      </trkpt>
      <trkpt lat="44.42789" lon="6.84477">
        <ele>2119.84</ele>
        <time>2023-02-14T09:03:19Z</time>
      </trkpt>
      <trkpt lat="44.42784" lon="6.8448">
        <ele>2122.25</ele>
        <time>2023-02-14T09:03:45Z</time>
      </trkpt>
      <trkpt lat="44.42777" lon="6.84468">
        <ele>2125.61</ele>
        <time>2023-02-14T09:04:15Z</time>
      </trkpt>
      <trkpt lat="44.42769" lon="6.84484">
        <ele>2129.94</ele>
        <time>2023-02-14T09:04:55Z</time>
      </trkpt>
      <trkpt lat="44.42763" lon="6.84477">
        <ele>2132.82</ele>
        <time>2023-02-14T09:05:57Z</time>
      </trkpt>
      <trkpt lat="44.42756" lon="6.84487">
        <ele>2136.19</ele>
        <time>2023-02-14T09:06:20Z</time>
      </trkpt>
      <trkpt lat="44.42748" lon="6.84482">
        <ele>2139.07</ele>
        <time>2023-02-14T09:06:41Z</time>
      </trkpt>
      <trkpt lat="44.42738" lon="6.84477">
        <ele>2145.32</ele>
        <time>2023-02-14T09:07:34Z</time>
      </trkpt>
      <trkpt lat="44.42729" lon="6.84473">
        <ele>2149.16</ele>
        <time>2023-02-14T09:08:07Z</time>
      </trkpt>
      <trkpt lat="44.42721" lon="6.84466">
        <ele>2153.01</ele>
        <time>2023-02-14T09:08:33Z</time>
      </trkpt>
      <trkpt lat="44.42709" lon="6.84461">
        <ele>2157.82</ele>
        <time>2023-02-14T09:09:10Z</time>
      </trkpt>
      <trkpt lat="44.42701" lon="6.84455">
        <ele>2160.22</ele>
        <time>2023-02-14T09:09:26Z</time>
      </trkpt>
      <trkpt lat="44.42692" lon="6.84451">
        <ele>2161.66</ele>
        <time>2023-02-14T09:09:50Z</time>
      </trkpt>
      <trkpt lat="44.42687" lon="6.84456">
        <ele>2162.62</ele>
        <time>2023-02-14T09:12:22Z</time>
      </trkpt>
      <trkpt lat="44.42676" lon="6.84449">
        <ele>2163.1</ele>
        <time>2023-02-14T09:14:00Z</time>
      </trkpt>
      <trkpt lat="44.42668" lon="6.84443">
        <ele>2163.58</ele>
        <time>2023-02-14T09:14:26Z</time>
      </trkpt>
      <trkpt lat="44.42659" lon="6.84435">
        <ele>2164.55</ele>
        <time>2023-02-14T09:14:41Z</time>
      </trkpt>
      <trkpt lat="44.42646" lon="6.84424">
        <ele>2165.99</ele>
        <time>2023-02-14T09:15:00Z</time>
      </trkpt>
      <trkpt lat="44.42637" lon="6.84414">
        <ele>2166.47</ele>
        <time>2023-02-14T09:15:14Z</time>
      </trkpt>
      <trkpt lat="44.42626" lon="6.84405">
        <ele>2166.95</ele>
        <time>2023-02-14T09:15:28Z</time>
      </trkpt>
      <trkpt lat="44.42615" lon="6.84398">
        <ele>2168.39</ele>
        <time>2023-02-14T09:15:45Z</time>
      </trkpt>
      <trkpt lat="44.42597" lon="6.8439">
        <ele>2170.79</ele>
        <time>2023-02-14T09:16:11Z</time>
      </trkpt>
      <trkpt lat="44.42585" lon="6.84384">
        <ele>2172.24</ele>
        <time>2023-02-14T09:16:35Z</time>
      </trkpt>
      <trkpt lat="44.42575" lon="6.84382">
        <ele>2174.64</ele>
        <time>2023-02-14T09:17:02Z</time>
      </trkpt>
      <trkpt lat="44.42566" lon="6.84386">
        <ele>2177.04</ele>
        <time>2023-02-14T09:17:27Z</time>
      </trkpt>
      <trkpt lat="44.42553" lon="6.84393">
        <ele>2180.41</ele>
        <time>2023-02-14T09:17:52Z</time>
      </trkpt>
      <trkpt lat="44.42541" lon="6.84394">
        <ele>2182.33</ele>
        <time>2023-02-14T09:18:18Z</time>
      </trkpt>
      <trkpt lat="44.42527" lon="6.84395">
        <ele>2185.69</ele>
        <time>2023-02-14T09:18:44Z</time>
      </trkpt>
      <trkpt lat="44.4252" lon="6.84405">
        <ele>2187.14</ele>
        <time>2023-02-14T09:19:00Z</time>
      </trkpt>
      <trkpt lat="44.42513" lon="6.84411">
        <ele>2190.5</ele>
        <time>2023-02-14T09:19:25Z</time>
      </trkpt>
      <trkpt lat="44.42507" lon="6.84418">
        <ele>2193.39</ele>
        <time>2023-02-14T09:19:51Z</time>
      </trkpt>
      <trkpt lat="44.42497" lon="6.84413">
        <ele>2196.75</ele>
        <time>2023-02-14T09:20:24Z</time>
      </trkpt>
      <trkpt lat="44.42485" lon="6.84412">
        <ele>2200.59</ele>
        <time>2023-02-14T09:21:12Z</time>
      </trkpt>
      <trkpt lat="44.42476" lon="6.844">
        <ele>2203.96</ele>
        <time>2023-02-14T09:21:43Z</time>
      </trkpt>
      <trkpt lat="44.42472" lon="6.84408">
        <ele>2207.81</ele>
        <time>2023-02-14T09:22:20Z</time>
      </trkpt>
      <trkpt lat="44.42464" lon="6.84397">
        <ele>2211.65</ele>
        <time>2023-02-14T09:22:57Z</time>
      </trkpt>
      <trkpt lat="44.42454" lon="6.84392">
        <ele>2216.46</ele>
        <time>2023-02-14T09:23:44Z</time>
      </trkpt>
      <trkpt lat="44.42448" lon="6.84394">
        <ele>2219.34</ele>
        <time>2023-02-14T09:24:20Z</time>
      </trkpt>
      <trkpt lat="44.42441" lon="6.84386">
        <ele>2221.74</ele>
        <time>2023-02-14T09:25:09Z</time>
      </trkpt>
      <trkpt lat="44.42432" lon="6.84374">
        <ele>2225.59</ele>
        <time>2023-02-14T09:25:35Z</time>
      </trkpt>
      <trkpt lat="44.42423" lon="6.84379">
        <ele>2228.95</ele>
        <time>2023-02-14T09:25:58Z</time>
      </trkpt>
      <trkpt lat="44.42417" lon="6.84367">
        <ele>2233.28</ele>
        <time>2023-02-14T09:26:30Z</time>
      </trkpt>
      <trkpt lat="44.4242" lon="6.84354">
        <ele>2236.16</ele>
        <time>2023-02-14T09:26:56Z</time>
      </trkpt>
      <trkpt lat="44.42413" lon="6.84343">
        <ele>2239.05</ele>
        <time>2023-02-14T09:27:25Z</time>
      </trkpt>
      <trkpt lat="44.42402" lon="6.84345">
        <ele>2242.41</ele>
        <time>2023-02-14T09:27:51Z</time>
      </trkpt>
      <trkpt lat="44.42387" lon="6.84339">
        <ele>2244.82</ele>
        <time>2023-02-14T09:28:19Z</time>
      </trkpt>
      <trkpt lat="44.42379" lon="6.84328">
        <ele>2247.22</ele>
        <time>2023-02-14T09:28:45Z</time>
      </trkpt>
      <trkpt lat="44.42374" lon="6.84338">
        <ele>2249.62</ele>
        <time>2023-02-14T09:29:08Z</time>
      </trkpt>
      <trkpt lat="44.42365" lon="6.84353">
        <ele>2253.47</ele>
        <time>2023-02-14T09:29:40Z</time>
      </trkpt>
      <trkpt lat="44.4236" lon="6.84343">
        <ele>2256.83</ele>
        <time>2023-02-14T09:30:14Z</time>
      </trkpt>
      <trkpt lat="44.42357" lon="6.84328">
        <ele>2260.2</ele>
        <time>2023-02-14T09:30:49Z</time>
      </trkpt>
      <trkpt lat="44.42352" lon="6.84338">
        <ele>2262.6</ele>
        <time>2023-02-14T09:31:15Z</time>
      </trkpt>
      <trkpt lat="44.42346" lon="6.84353">
        <ele>2265</ele>
        <time>2023-02-14T09:31:44Z</time>
      </trkpt>
      <trkpt lat="44.42343" lon="6.8435">
        <ele>2267.41</ele>
        <time>2023-02-14T09:32:15Z</time>
      </trkpt>
      <trkpt lat="44.4234" lon="6.84327">
        <ele>2271.25</ele>
        <time>2023-02-14T09:32:43Z</time>
      </trkpt>
      <trkpt lat="44.42335" lon="6.84311">
        <ele>2273.66</ele>
        <time>2023-02-14T09:33:11Z</time>
      </trkpt>
      <trkpt lat="44.4233" lon="6.84293">
        <ele>2277.02</ele>
        <time>2023-02-14T09:33:40Z</time>
      </trkpt>
      <trkpt lat="44.42321" lon="6.84277">
        <ele>2280.87</ele>
        <time>2023-02-14T09:34:15Z</time>
      </trkpt>
      <trkpt lat="44.42313" lon="6.84264">
        <ele>2284.23</ele>
        <time>2023-02-14T09:34:43Z</time>
      </trkpt>
      <trkpt lat="44.42304" lon="6.84247">
        <ele>2287.11</ele>
        <time>2023-02-14T09:35:11Z</time>
      </trkpt>
      <trkpt lat="44.42295" lon="6.84232">
        <ele>2290.48</ele>
        <time>2023-02-14T09:35:41Z</time>
      </trkpt>
      <trkpt lat="44.42287" lon="6.84218">
        <ele>2292.4</ele>
        <time>2023-02-14T09:36:10Z</time>
      </trkpt>
      <trkpt lat="44.42281" lon="6.84207">
        <ele>2295.77</ele>
        <time>2023-02-14T09:36:32Z</time>
      </trkpt>
      <trkpt lat="44.42274" lon="6.84191">
        <ele>2299.61</ele>
        <time>2023-02-14T09:37:06Z</time>
      </trkpt>
      <trkpt lat="44.42261" lon="6.84188">
        <ele>2304.42</ele>
        <time>2023-02-14T09:37:42Z</time>
      </trkpt>
      <trkpt lat="44.42249" lon="6.8419">
        <ele>2309.7</ele>
        <time>2023-02-14T09:38:19Z</time>
      </trkpt>
      <trkpt lat="44.42239" lon="6.84195">
        <ele>2313.07</ele>
        <time>2023-02-14T09:38:48Z</time>
      </trkpt>
      <trkpt lat="44.42227" lon="6.84205">
        <ele>2317.4</ele>
        <time>2023-02-14T09:39:22Z</time>
      </trkpt>
      <trkpt lat="44.42219" lon="6.84213">
        <ele>2319.8</ele>
        <time>2023-02-14T09:39:47Z</time>
      </trkpt>
      <trkpt lat="44.42211" lon="6.84223">
        <ele>2322.2</ele>
        <time>2023-02-14T09:40:10Z</time>
      </trkpt>
      <trkpt lat="44.42203" lon="6.84236">
        <ele>2325.57</ele>
        <time>2023-02-14T09:40:37Z</time>
      </trkpt>
      <trkpt lat="44.422" lon="6.84249">
        <ele>2328.45</ele>
        <time>2023-02-14T09:41:00Z</time>
      </trkpt>
      <trkpt lat="44.42195" lon="6.84261">
        <ele>2331.33</ele>
        <time>2023-02-14T09:41:23Z</time>
      </trkpt>
      <trkpt lat="44.4219" lon="6.84275">
        <ele>2335.66</ele>
        <time>2023-02-14T09:41:56Z</time>
      </trkpt>
      <trkpt lat="44.42183" lon="6.84289">
        <ele>2339.51</ele>
        <time>2023-02-14T09:42:31Z</time>
      </trkpt>
      <trkpt lat="44.42179" lon="6.84302">
        <ele>2343.35</ele>
        <time>2023-02-14T09:43:02Z</time>
      </trkpt>
      <trkpt lat="44.4217" lon="6.84314">
        <ele>2348.16</ele>
        <time>2023-02-14T09:43:39Z</time>
      </trkpt>
      <trkpt lat="44.4216" lon="6.84315">
        <ele>2350.56</ele>
        <time>2023-02-14T09:44:04Z</time>
      </trkpt>
      <trkpt lat="44.42148" lon="6.8431">
        <ele>2352.96</ele>
        <time>2023-02-14T09:44:30Z</time>
      </trkpt>
      <trkpt lat="44.42135" lon="6.84312">
        <ele>2357.29</ele>
        <time>2023-02-14T09:45:08Z</time>
      </trkpt>
      <trkpt lat="44.42127" lon="6.84323">
        <ele>2361.14</ele>
        <time>2023-02-14T09:45:41Z</time>
      </trkpt>
      <trkpt lat="44.4212" lon="6.84333">
        <ele>2364.02</ele>
        <time>2023-02-14T09:46:15Z</time>
      </trkpt>
      <trkpt lat="44.42111" lon="6.8433">
        <ele>2369.31</ele>
        <time>2023-02-14T09:46:57Z</time>
      </trkpt>
      <trkpt lat="44.42108" lon="6.84343">
        <ele>2373.15</ele>
        <time>2023-02-14T09:47:28Z</time>
      </trkpt>
      <trkpt lat="44.42097" lon="6.84345">
        <ele>2377.48</ele>
        <time>2023-02-14T09:48:02Z</time>
      </trkpt>
      <trkpt lat="44.42085" lon="6.84339">
        <ele>2381.8</ele>
        <time>2023-02-14T09:48:39Z</time>
      </trkpt>
      <trkpt lat="44.42076" lon="6.84335">
        <ele>2384.69</ele>
        <time>2023-02-14T09:49:04Z</time>
      </trkpt>
      <trkpt lat="44.42065" lon="6.84333">
        <ele>2388.05</ele>
        <time>2023-02-14T09:49:28Z</time>
      </trkpt>
      <trkpt lat="44.42046" lon="6.84337">
        <ele>2389.97</ele>
        <time>2023-02-14T09:49:59Z</time>
      </trkpt>
      <trkpt lat="44.42032" lon="6.8434">
        <ele>2392.38</ele>
        <time>2023-02-14T09:50:26Z</time>
      </trkpt>
      <trkpt lat="44.42018" lon="6.84344">
        <ele>2395.74</ele>
        <time>2023-02-14T09:50:54Z</time>
      </trkpt>
      <trkpt lat="44.42009" lon="6.84345">
        <ele>2397.67</ele>
        <time>2023-02-14T09:51:18Z</time>
      </trkpt>
      <trkpt lat="44.41996" lon="6.84341">
        <ele>2401.03</ele>
        <time>2023-02-14T09:51:46Z</time>
      </trkpt>
      <trkpt lat="44.41999" lon="6.84336">
        <ele>2400.07</ele>
        <time>2023-02-14T09:54:23Z</time>
      </trkpt>
      <trkpt lat="44.41996" lon="6.8434">
        <ele>2401.99</ele>
        <time>2023-02-14T09:57:00Z</time>
      </trkpt>
      <trkpt lat="44.41995" lon="6.84336">
        <ele>2401.99</ele>
        <time>2023-02-14T09:58:42Z</time>
      </trkpt>
      <trkpt lat="44.41993" lon="6.84337">
        <ele>2402.47</ele>
        <time>2023-02-14T10:00:20Z</time>
      </trkpt>
      <trkpt lat="44.41981" lon="6.84335">
        <ele>2403.91</ele>
        <time>2023-02-14T10:01:51Z</time>
      </trkpt>
      <trkpt lat="44.41964" lon="6.84326">
        <ele>2406.8</ele>
        <time>2023-02-14T10:02:19Z</time>
      </trkpt>
      <trkpt lat="44.41951" lon="6.8432">
        <ele>2410.16</ele>
        <time>2023-02-14T10:02:47Z</time>
      </trkpt>
      <trkpt lat="44.41941" lon="6.84318">
        <ele>2411.6</ele>
        <time>2023-02-14T10:03:01Z</time>
      </trkpt>
      <trkpt lat="44.41918" lon="6.84315">
        <ele>2411.12</ele>
        <time>2023-02-14T10:03:27Z</time>
      </trkpt>
      <trkpt lat="44.41896" lon="6.84314">
        <ele>2408.72</ele>
        <time>2023-02-14T10:03:41Z</time>
      </trkpt>
      <trkpt lat="44.41857" lon="6.84315">
        <ele>2405.84</ele>
        <time>2023-02-14T10:04:11Z</time>
      </trkpt>
      <trkpt lat="44.41842" lon="6.84315">
        <ele>2405.84</ele>
        <time>2023-02-14T10:04:27Z</time>
      </trkpt>
      <trkpt lat="44.41829" lon="6.84314">
        <ele>2407.76</ele>
        <time>2023-02-14T10:04:41Z</time>
      </trkpt>
      <trkpt lat="44.41814" lon="6.84314">
        <ele>2408.24</ele>
        <time>2023-02-14T10:04:56Z</time>
      </trkpt>
      <trkpt lat="44.41801" lon="6.84316">
        <ele>2410.64</ele>
        <time>2023-02-14T10:05:22Z</time>
      </trkpt>
      <trkpt lat="44.41787" lon="6.84324">
        <ele>2414.49</ele>
        <time>2023-02-14T10:05:49Z</time>
      </trkpt>
      <trkpt lat="44.41776" lon="6.84333">
        <ele>2417.37</ele>
        <time>2023-02-14T10:06:14Z</time>
      </trkpt>
      <trkpt lat="44.41763" lon="6.84331">
        <ele>2419.3</ele>
        <time>2023-02-14T10:06:39Z</time>
      </trkpt>
      <trkpt lat="44.41749" lon="6.84325">
        <ele>2422.18</ele>
        <time>2023-02-14T10:07:05Z</time>
      </trkpt>
      <trkpt lat="44.41737" lon="6.84324">
        <ele>2426.02</ele>
        <time>2023-02-14T10:07:32Z</time>
      </trkpt>
      <trkpt lat="44.41721" lon="6.84323">
        <ele>2429.39</ele>
        <time>2023-02-14T10:08:00Z</time>
      </trkpt>
      <trkpt lat="44.41706" lon="6.84321">
        <ele>2432.27</ele>
        <time>2023-02-14T10:08:25Z</time>
      </trkpt>
      <trkpt lat="44.41689" lon="6.84315">
        <ele>2435.16</ele>
        <time>2023-02-14T10:08:52Z</time>
      </trkpt>
      <trkpt lat="44.41681" lon="6.84307">
        <ele>2437.08</ele>
        <time>2023-02-14T10:09:11Z</time>
      </trkpt>
      <trkpt lat="44.41673" lon="6.84298">
        <ele>2438.52</ele>
        <time>2023-02-14T10:09:24Z</time>
      </trkpt>
      <trkpt lat="44.41664" lon="6.84289">
        <ele>2439</ele>
        <time>2023-02-14T10:09:39Z</time>
      </trkpt>
      <trkpt lat="44.41656" lon="6.84279">
        <ele>2439</ele>
        <time>2023-02-14T10:09:54Z</time>
      </trkpt>
      <trkpt lat="44.41652" lon="6.84271">
        <ele>2440.44</ele>
        <time>2023-02-14T10:11:00Z</time>
      </trkpt>
      <trkpt lat="44.4164" lon="6.84258">
        <ele>2444.29</ele>
        <time>2023-02-14T10:11:41Z</time>
      </trkpt>
      <trkpt lat="44.41632" lon="6.84241">
        <ele>2448.13</ele>
        <time>2023-02-14T10:12:07Z</time>
      </trkpt>
      <trkpt lat="44.41622" lon="6.84232">
        <ele>2451.5</ele>
        <time>2023-02-14T10:12:39Z</time>
      </trkpt>
      <trkpt lat="44.41618" lon="6.84222">
        <ele>2456.31</ele>
        <time>2023-02-14T10:13:28Z</time>
      </trkpt>
      <trkpt lat="44.41612" lon="6.84214">
        <ele>2459.67</ele>
        <time>2023-02-14T10:14:08Z</time>
      </trkpt>
      <trkpt lat="44.41603" lon="6.84217">
        <ele>2463.04</ele>
        <time>2023-02-14T10:14:35Z</time>
      </trkpt>
      <trkpt lat="44.416" lon="6.84209">
        <ele>2467.36</ele>
        <time>2023-02-14T10:15:21Z</time>
      </trkpt>
      <trkpt lat="44.41601" lon="6.84197">
        <ele>2470.73</ele>
        <time>2023-02-14T10:15:46Z</time>
      </trkpt>
      <trkpt lat="44.41599" lon="6.84188">
        <ele>2474.09</ele>
        <time>2023-02-14T10:16:22Z</time>
      </trkpt>
      <trkpt lat="44.41589" lon="6.84191">
        <ele>2476.49</ele>
        <time>2023-02-14T10:16:46Z</time>
      </trkpt>
      <trkpt lat="44.41579" lon="6.8419">
        <ele>2478.9</ele>
        <time>2023-02-14T10:17:09Z</time>
      </trkpt>
      <trkpt lat="44.41576" lon="6.8418">
        <ele>2482.74</ele>
        <time>2023-02-14T10:17:39Z</time>
      </trkpt>
      <trkpt lat="44.41575" lon="6.84168">
        <ele>2486.11</ele>
        <time>2023-02-14T10:18:04Z</time>
      </trkpt>
      <trkpt lat="44.41562" lon="6.84161">
        <ele>2488.51</ele>
        <time>2023-02-14T10:18:31Z</time>
      </trkpt>
      <trkpt lat="44.41551" lon="6.84154">
        <ele>2490.43</ele>
        <time>2023-02-14T10:18:56Z</time>
      </trkpt>
      <trkpt lat="44.41539" lon="6.84149">
        <ele>2493.32</ele>
        <time>2023-02-14T10:19:22Z</time>
      </trkpt>
      <trkpt lat="44.41527" lon="6.84143">
        <ele>2495.72</ele>
        <time>2023-02-14T10:19:47Z</time>
      </trkpt>
      <trkpt lat="44.41511" lon="6.84137">
        <ele>2497.64</ele>
        <time>2023-02-14T10:20:17Z</time>
      </trkpt>
      <trkpt lat="44.41501" lon="6.84129">
        <ele>2500.53</ele>
        <time>2023-02-14T10:20:47Z</time>
      </trkpt>
      <trkpt lat="44.41496" lon="6.84117">
        <ele>2502.45</ele>
        <time>2023-02-14T10:21:09Z</time>
      </trkpt>
      <trkpt lat="44.41486" lon="6.84114">
        <ele>2505.81</ele>
        <time>2023-02-14T10:21:37Z</time>
      </trkpt>
      <trkpt lat="44.41473" lon="6.84119">
        <ele>2510.14</ele>
        <time>2023-02-14T10:22:13Z</time>
      </trkpt>
      <trkpt lat="44.41463" lon="6.84117">
        <ele>2512.06</ele>
        <time>2023-02-14T10:22:36Z</time>
      </trkpt>
      <trkpt lat="44.41451" lon="6.84108">
        <ele>2515.43</ele>
        <time>2023-02-14T10:23:09Z</time>
      </trkpt>
      <trkpt lat="44.41442" lon="6.84101">
        <ele>2517.35</ele>
        <time>2023-02-14T10:23:33Z</time>
      </trkpt>
      <trkpt lat="44.41432" lon="6.84092">
        <ele>2519.75</ele>
        <time>2023-02-14T10:23:58Z</time>
      </trkpt>
      <trkpt lat="44.41424" lon="6.84086">
        <ele>2521.19</ele>
        <time>2023-02-14T10:24:23Z</time>
      </trkpt>
      <trkpt lat="44.41415" lon="6.84081">
        <ele>2523.12</ele>
        <time>2023-02-14T10:24:41Z</time>
      </trkpt>
      <trkpt lat="44.41406" lon="6.8408">
        <ele>2524.08</ele>
        <time>2023-02-14T10:24:58Z</time>
      </trkpt>
      <trkpt lat="44.41396" lon="6.84075">
        <ele>2525.52</ele>
        <time>2023-02-14T10:25:23Z</time>
      </trkpt>
      <trkpt lat="44.41381" lon="6.8407">
        <ele>2528.89</ele>
        <time>2023-02-14T10:25:52Z</time>
      </trkpt>
      <trkpt lat="44.41368" lon="6.84069">
        <ele>2531.29</ele>
        <time>2023-02-14T10:26:18Z</time>
      </trkpt>
      <trkpt lat="44.4136" lon="6.84073">
        <ele>2532.73</ele>
        <time>2023-02-14T10:26:36Z</time>
      </trkpt>
      <trkpt lat="44.41343" lon="6.84075">
        <ele>2531.29</ele>
        <time>2023-02-14T10:26:53Z</time>
      </trkpt>
      <trkpt lat="44.41329" lon="6.84073">
        <ele>2533.69</ele>
        <time>2023-02-14T10:27:17Z</time>
      </trkpt>
      <trkpt lat="44.41317" lon="6.8407">
        <ele>2536.58</ele>
        <time>2023-02-14T10:27:42Z</time>
      </trkpt>
      <trkpt lat="44.41305" lon="6.8407">
        <ele>2537.06</ele>
        <time>2023-02-14T10:28:00Z</time>
      </trkpt>
      <trkpt lat="44.4129" lon="6.84074">
        <ele>2538.98</ele>
        <time>2023-02-14T10:28:27Z</time>
      </trkpt>
      <trkpt lat="44.41281" lon="6.84079">
        <ele>2539.46</ele>
        <time>2023-02-14T10:28:43Z</time>
      </trkpt>
      <trkpt lat="44.41272" lon="6.84084">
        <ele>2540.9</ele>
        <time>2023-02-14T10:28:59Z</time>
      </trkpt>
      <trkpt lat="44.41261" lon="6.84088">
        <ele>2541.86</ele>
        <time>2023-02-14T10:29:14Z</time>
      </trkpt>
      <trkpt lat="44.41246" lon="6.84096">
        <ele>2543.31</ele>
        <time>2023-02-14T10:29:43Z</time>
      </trkpt>
      <trkpt lat="44.41246" lon="6.84096">
        <ele>2543.79</ele>
        <time>2023-02-14T10:32:06Z</time>
      </trkpt>
      <trkpt lat="44.41244" lon="6.84098">
        <ele>2544.27</ele>
        <time>2023-02-14T10:34:55Z</time>
      </trkpt>
      <trkpt lat="44.41242" lon="6.84099">
        <ele>2545.23</ele>
        <time>2023-02-14T10:37:58Z</time>
      </trkpt>
      <trkpt lat="44.41236" lon="6.84104">
        <ele>2545.23</ele>
        <time>2023-02-14T10:39:05Z</time>
      </trkpt>
      <trkpt lat="44.41224" lon="6.84112">
        <ele>2547.63</ele>
        <time>2023-02-14T10:39:56Z</time>
      </trkpt>
      <trkpt lat="44.41215" lon="6.84116">
        <ele>2550.51</ele>
        <time>2023-02-14T10:40:20Z</time>
      </trkpt>
      <trkpt lat="44.41205" lon="6.84121">
        <ele>2553.4</ele>
        <time>2023-02-14T10:40:46Z</time>
      </trkpt>
      <trkpt lat="44.41196" lon="6.8413">
        <ele>2555.8</ele>
        <time>2023-02-14T10:41:13Z</time>
      </trkpt>
      <trkpt lat="44.41189" lon="6.8414">
        <ele>2560.13</ele>
        <time>2023-02-14T10:41:48Z</time>
      </trkpt>
      <trkpt lat="44.41185" lon="6.84155">
        <ele>2562.53</ele>
        <time>2023-02-14T10:42:25Z</time>
      </trkpt>
      <trkpt lat="44.41184" lon="6.84169">
        <ele>2565.9</ele>
        <time>2023-02-14T10:42:50Z</time>
      </trkpt>
      <trkpt lat="44.41181" lon="6.84163">
        <ele>2569.26</ele>
        <time>2023-02-14T10:43:29Z</time>
      </trkpt>
      <trkpt lat="44.41172" lon="6.8415">
        <ele>2572.14</ele>
        <time>2023-02-14T10:44:05Z</time>
      </trkpt>
      <trkpt lat="44.41164" lon="6.84137">
        <ele>2575.03</ele>
        <time>2023-02-14T10:44:43Z</time>
      </trkpt>
      <trkpt lat="44.41157" lon="6.84119">
        <ele>2578.87</ele>
        <time>2023-02-14T10:45:13Z</time>
      </trkpt>
      <trkpt lat="44.41155" lon="6.84104">
        <ele>2581.28</ele>
        <time>2023-02-14T10:45:39Z</time>
      </trkpt>
      <trkpt lat="44.4115" lon="6.84104">
        <ele>2585.12</ele>
        <time>2023-02-14T10:46:32Z</time>
      </trkpt>
      <trkpt lat="44.41141" lon="6.84119">
        <ele>2588.49</ele>
        <time>2023-02-14T10:47:01Z</time>
      </trkpt>
      <trkpt lat="44.41137" lon="6.84111">
        <ele>2590.89</ele>
        <time>2023-02-14T10:47:27Z</time>
      </trkpt>
      <trkpt lat="44.41138" lon="6.8409">
        <ele>2593.77</ele>
        <time>2023-02-14T10:47:57Z</time>
      </trkpt>
      <trkpt lat="44.41141" lon="6.84077">
        <ele>2596.66</ele>
        <time>2023-02-14T10:48:24Z</time>
      </trkpt>
      <trkpt lat="44.41142" lon="6.84063">
        <ele>2599.54</ele>
        <time>2023-02-14T10:48:49Z</time>
      </trkpt>
      <trkpt lat="44.41142" lon="6.84047">
        <ele>2602.91</ele>
        <time>2023-02-14T10:49:18Z</time>
      </trkpt>
      <trkpt lat="44.41143" lon="6.84034">
        <ele>2605.79</ele>
        <time>2023-02-14T10:49:43Z</time>
      </trkpt>
      <trkpt lat="44.41144" lon="6.84021">
        <ele>2608.19</ele>
        <time>2023-02-14T10:50:07Z</time>
      </trkpt>
      <trkpt lat="44.41139" lon="6.84014">
        <ele>2612.04</ele>
        <time>2023-02-14T10:50:43Z</time>
      </trkpt>
      <trkpt lat="44.41129" lon="6.84023">
        <ele>2614.92</ele>
        <time>2023-02-14T10:51:06Z</time>
      </trkpt>
      <trkpt lat="44.41127" lon="6.84017">
        <ele>2618.77</ele>
        <time>2023-02-14T10:51:44Z</time>
      </trkpt>
      <trkpt lat="44.41122" lon="6.8401">
        <ele>2621.17</ele>
        <time>2023-02-14T10:52:15Z</time>
      </trkpt>
      <trkpt lat="44.41115" lon="6.84019">
        <ele>2623.58</ele>
        <time>2023-02-14T10:53:01Z</time>
      </trkpt>
      <trkpt lat="44.41107" lon="6.84029">
        <ele>2626.94</ele>
        <time>2023-02-14T10:53:23Z</time>
      </trkpt>
      <trkpt lat="44.41098" lon="6.84038">
        <ele>2629.82</ele>
        <time>2023-02-14T10:53:47Z</time>
      </trkpt>
      <trkpt lat="44.41089" lon="6.84039">
        <ele>2632.71</ele>
        <time>2023-02-14T10:54:16Z</time>
      </trkpt>
      <trkpt lat="44.41078" lon="6.84037">
        <ele>2637.03</ele>
        <time>2023-02-14T10:54:54Z</time>
      </trkpt>
      <trkpt lat="44.41067" lon="6.84032">
        <ele>2641.36</ele>
        <time>2023-02-14T10:55:29Z</time>
      </trkpt>
      <trkpt lat="44.41057" lon="6.84041">
        <ele>2644.24</ele>
        <time>2023-02-14T10:55:51Z</time>
      </trkpt>
      <trkpt lat="44.41049" lon="6.84053">
        <ele>2649.05</ele>
        <time>2023-02-14T10:56:29Z</time>
      </trkpt>
      <trkpt lat="44.41042" lon="6.84066">
        <ele>2651.45</ele>
        <time>2023-02-14T10:56:58Z</time>
      </trkpt>
      <trkpt lat="44.41035" lon="6.84081">
        <ele>2655.78</ele>
        <time>2023-02-14T10:57:35Z</time>
      </trkpt>
      <trkpt lat="44.41032" lon="6.841">
        <ele>2659.14</ele>
        <time>2023-02-14T10:58:13Z</time>
      </trkpt>
      <trkpt lat="44.41024" lon="6.84112">
        <ele>2663.95</ele>
        <time>2023-02-14T10:58:49Z</time>
      </trkpt>
      <trkpt lat="44.41015" lon="6.84121">
        <ele>2667.8</ele>
        <time>2023-02-14T10:59:21Z</time>
      </trkpt>
      <trkpt lat="44.4101" lon="6.84125">
        <ele>2671.64</ele>
        <time>2023-02-14T11:00:05Z</time>
      </trkpt>
      <trkpt lat="44.41005" lon="6.84113">
        <ele>2674.04</ele>
        <time>2023-02-14T11:00:30Z</time>
      </trkpt>
      <trkpt lat="44.40996" lon="6.84113">
        <ele>2677.89</ele>
        <time>2023-02-14T11:01:03Z</time>
      </trkpt>
      <trkpt lat="44.40991" lon="6.84128">
        <ele>2679.81</ele>
        <time>2023-02-14T11:01:32Z</time>
      </trkpt>
      <trkpt lat="44.4099" lon="6.84145">
        <ele>2683.18</ele>
        <time>2023-02-14T11:02:02Z</time>
      </trkpt>
      <trkpt lat="44.40988" lon="6.84164">
        <ele>2687.5</ele>
        <time>2023-02-14T11:02:39Z</time>
      </trkpt>
      <trkpt lat="44.40984" lon="6.84178">
        <ele>2690.87</ele>
        <time>2023-02-14T11:03:26Z</time>
      </trkpt>
      <trkpt lat="44.40981" lon="6.84194">
        <ele>2694.71</ele>
        <time>2023-02-14T11:03:58Z</time>
      </trkpt>
      <trkpt lat="44.40981" lon="6.84212">
        <ele>2698.08</ele>
        <time>2023-02-14T11:04:25Z</time>
      </trkpt>
      <trkpt lat="44.40984" lon="6.8423">
        <ele>2700.96</ele>
        <time>2023-02-14T11:04:54Z</time>
      </trkpt>
      <trkpt lat="44.40987" lon="6.84243">
        <ele>2703.36</ele>
        <time>2023-02-14T11:05:17Z</time>
      </trkpt>
      <trkpt lat="44.40985" lon="6.84257">
        <ele>2705.77</ele>
        <time>2023-02-14T11:05:42Z</time>
      </trkpt>
      <trkpt lat="44.40982" lon="6.84269">
        <ele>2708.65</ele>
        <time>2023-02-14T11:06:05Z</time>
      </trkpt>
      <trkpt lat="44.40979" lon="6.84282">
        <ele>2711.54</ele>
        <time>2023-02-14T11:06:30Z</time>
      </trkpt>
      <trkpt lat="44.40977" lon="6.84299">
        <ele>2714.9</ele>
        <time>2023-02-14T11:07:07Z</time>
      </trkpt>
      <trkpt lat="44.40973" lon="6.84311">
        <ele>2717.78</ele>
        <time>2023-02-14T11:07:30Z</time>
      </trkpt>
      <trkpt lat="44.4097" lon="6.84323">
        <ele>2720.67</ele>
        <time>2023-02-14T11:07:57Z</time>
      </trkpt>
      <trkpt lat="44.40968" lon="6.84337">
        <ele>2723.07</ele>
        <time>2023-02-14T11:08:20Z</time>
      </trkpt>
      <trkpt lat="44.40968" lon="6.84351">
        <ele>2726.92</ele>
        <time>2023-02-14T11:08:49Z</time>
      </trkpt>
      <trkpt lat="44.40968" lon="6.8437">
        <ele>2731.72</ele>
        <time>2023-02-14T11:09:28Z</time>
      </trkpt>
      <trkpt lat="44.40965" lon="6.84385">
        <ele>2734.61</ele>
        <time>2023-02-14T11:09:53Z</time>
      </trkpt>
      <trkpt lat="44.40962" lon="6.84397">
        <ele>2737.97</ele>
        <time>2023-02-14T11:10:24Z</time>
      </trkpt>
      <trkpt lat="44.40957" lon="6.84411">
        <ele>2741.82</ele>
        <time>2023-02-14T11:11:01Z</time>
      </trkpt>
      <trkpt lat="44.4095" lon="6.84424">
        <ele>2746.62</ele>
        <time>2023-02-14T11:11:41Z</time>
      </trkpt>
      <trkpt lat="44.40942" lon="6.84435">
        <ele>2750.47</ele>
        <time>2023-02-14T11:12:17Z</time>
      </trkpt>
      <trkpt lat="44.40935" lon="6.84446">
        <ele>2755.28</ele>
        <time>2023-02-14T11:12:53Z</time>
      </trkpt>
      <trkpt lat="44.40927" lon="6.84458">
        <ele>2758.64</ele>
        <time>2023-02-14T11:13:29Z</time>
      </trkpt>
      <trkpt lat="44.40918" lon="6.84466">
        <ele>2763.45</ele>
        <time>2023-02-14T11:14:03Z</time>
      </trkpt>
      <trkpt lat="44.40909" lon="6.84473">
        <ele>2766.33</ele>
        <time>2023-02-14T11:14:39Z</time>
      </trkpt>
      <trkpt lat="44.40897" lon="6.84475">
        <ele>2770.66</ele>
        <time>2023-02-14T11:15:13Z</time>
      </trkpt>
      <trkpt lat="44.40888" lon="6.84478">
        <ele>2774.02</ele>
        <time>2023-02-14T11:15:48Z</time>
      </trkpt>
      <trkpt lat="44.40885" lon="6.84465">
        <ele>2779.31</ele>
        <time>2023-02-14T11:16:33Z</time>
      </trkpt>
      <trkpt lat="44.4088" lon="6.84455">
        <ele>2782.19</ele>
        <time>2023-02-14T11:17:29Z</time>
      </trkpt>
      <trkpt lat="44.40876" lon="6.84439">
        <ele>2787</ele>
        <time>2023-02-14T11:18:05Z</time>
      </trkpt>
      <trkpt lat="44.40868" lon="6.84429">
        <ele>2790.84</ele>
        <time>2023-02-14T11:18:38Z</time>
      </trkpt>
      <trkpt lat="44.40862" lon="6.84414">
        <ele>2794.21</ele>
        <time>2023-02-14T11:19:14Z</time>
      </trkpt>
      <trkpt lat="44.40855" lon="6.84399">
        <ele>2799.02</ele>
        <time>2023-02-14T11:19:51Z</time>
      </trkpt>
      <trkpt lat="44.40847" lon="6.84407">
        <ele>2801.42</ele>
        <time>2023-02-14T11:20:16Z</time>
      </trkpt>
      <trkpt lat="44.40839" lon="6.8442">
        <ele>2805.75</ele>
        <time>2023-02-14T11:20:56Z</time>
      </trkpt>
      <trkpt lat="44.4083" lon="6.84433">
        <ele>2809.59</ele>
        <time>2023-02-14T11:21:31Z</time>
      </trkpt>
      <trkpt lat="44.40822" lon="6.84446">
        <ele>2812.96</ele>
        <time>2023-02-14T11:22:04Z</time>
      </trkpt>
      <trkpt lat="44.40816" lon="6.84444">
        <ele>2817.28</ele>
        <time>2023-02-14T11:22:41Z</time>
      </trkpt>
      <trkpt lat="44.40809" lon="6.84432">
        <ele>2820.65</ele>
        <time>2023-02-14T11:23:18Z</time>
      </trkpt>
      <trkpt lat="44.408" lon="6.84422">
        <ele>2824.97</ele>
        <time>2023-02-14T11:23:53Z</time>
      </trkpt>
      <trkpt lat="44.40792" lon="6.84432">
        <ele>2827.37</ele>
        <time>2023-02-14T11:24:17Z</time>
      </trkpt>
      <trkpt lat="44.40787" lon="6.84447">
        <ele>2830.74</ele>
        <time>2023-02-14T11:24:52Z</time>
      </trkpt>
      <trkpt lat="44.40782" lon="6.84458">
        <ele>2833.62</ele>
        <time>2023-02-14T11:25:17Z</time>
      </trkpt>
      <trkpt lat="44.40777" lon="6.84472">
        <ele>2836.99</ele>
        <time>2023-02-14T11:25:42Z</time>
      </trkpt>
      <trkpt lat="44.40771" lon="6.84486">
        <ele>2840.83</ele>
        <time>2023-02-14T11:26:07Z</time>
      </trkpt>
      <trkpt lat="44.40763" lon="6.84481">
        <ele>2845.64</ele>
        <time>2023-02-14T11:26:54Z</time>
      </trkpt>
      <trkpt lat="44.40754" lon="6.8447">
        <ele>2849.48</ele>
        <time>2023-02-14T11:27:31Z</time>
      </trkpt>
      <trkpt lat="44.40746" lon="6.84462">
        <ele>2852.37</ele>
        <time>2023-02-14T11:28:01Z</time>
      </trkpt>
      <trkpt lat="44.40738" lon="6.84451">
        <ele>2856.69</ele>
        <time>2023-02-14T11:28:38Z</time>
      </trkpt>
      <trkpt lat="44.4073" lon="6.84454">
        <ele>2859.58</ele>
        <time>2023-02-14T11:29:02Z</time>
      </trkpt>
      <trkpt lat="44.40725" lon="6.84468">
        <ele>2862.94</ele>
        <time>2023-02-14T11:29:29Z</time>
      </trkpt>
      <trkpt lat="44.40723" lon="6.84483">
        <ele>2865.83</ele>
        <time>2023-02-14T11:29:54Z</time>
      </trkpt>
      <trkpt lat="44.4072" lon="6.84495">
        <ele>2868.71</ele>
        <time>2023-02-14T11:30:19Z</time>
      </trkpt>
      <trkpt lat="44.40714" lon="6.84497">
        <ele>2872.56</ele>
        <time>2023-02-14T11:31:23Z</time>
      </trkpt>
      <trkpt lat="44.40717" lon="6.84511">
        <ele>2873.52</ele>
        <time>2023-02-14T11:31:49Z</time>
      </trkpt>
      <trkpt lat="44.40719" lon="6.84524">
        <ele>2875.92</ele>
        <time>2023-02-14T11:32:12Z</time>
      </trkpt>
      <trkpt lat="44.40714" lon="6.84537">
        <ele>2884.09</ele>
        <time>2023-02-14T11:33:21Z</time>
      </trkpt>
      <trkpt lat="44.40715" lon="6.8455">
        <ele>2886.98</ele>
        <time>2023-02-14T11:34:01Z</time>
      </trkpt>
      <trkpt lat="44.40712" lon="6.84549">
        <ele>2886.98</ele>
        <time>2023-02-14T11:36:05Z</time>
      </trkpt>
      <trkpt lat="44.40714" lon="6.8454">
        <ele>2884.57</ele>
        <time>2023-02-14T11:37:48Z</time>
      </trkpt>
      <trkpt lat="44.4072" lon="6.84529">
        <ele>2877.84</ele>
        <time>2023-02-14T11:38:45Z</time>
      </trkpt>
      <trkpt lat="44.40718" lon="6.84511">
        <ele>2874</ele>
        <time>2023-02-14T11:39:19Z</time>
      </trkpt>
      <trkpt lat="44.40715" lon="6.84497">
        <ele>2874</ele>
        <time>2023-02-14T11:39:36Z</time>
      </trkpt>
      <trkpt lat="44.40715" lon="6.84496">
        <ele>2874</ele>
        <time>2023-02-14T11:44:40Z</time>
      </trkpt>
      <trkpt lat="44.40713" lon="6.84498">
        <ele>2874.48</ele>
        <time>2023-02-14T11:48:03Z</time>
      </trkpt>
      <trkpt lat="44.40714" lon="6.84495">
        <ele>2870.63</ele>
        <time>2023-02-14T11:53:06Z</time>
      </trkpt>
      <trkpt lat="44.40715" lon="6.84497">
        <ele>2874.48</ele>
        <time>2023-02-14T11:56:36Z</time>
      </trkpt>
      <trkpt lat="44.40715" lon="6.84496">
        <ele>2874.96</ele>
        <time>2023-02-14T12:01:46Z</time>
      </trkpt>
      <trkpt lat="44.40715" lon="6.84498">
        <ele>2875.92</ele>
        <time>2023-02-14T12:08:37Z</time>
      </trkpt>
      <trkpt lat="44.40715" lon="6.84497">
        <ele>2876.4</ele>
        <time>2023-02-14T12:11:22Z</time>
      </trkpt>
      <trkpt lat="44.40696" lon="6.84535">
        <ele>2870.63</ele>
        <time>2023-02-14T12:13:45Z</time>
      </trkpt>
      <trkpt lat="44.40687" lon="6.84539">
        <ele>2864.39</ele>
        <time>2023-02-14T12:13:58Z</time>
      </trkpt>
      <trkpt lat="44.4068" lon="6.84557">
        <ele>2851.41</ele>
        <time>2023-02-14T12:14:47Z</time>
      </trkpt>
      <trkpt lat="44.40669" lon="6.84572">
        <ele>2841.79</ele>
        <time>2023-02-14T12:15:06Z</time>
      </trkpt>
      <trkpt lat="44.4069" lon="6.8465">
        <ele>2819.2</ele>
        <time>2023-02-14T12:15:32Z</time>
      </trkpt>
      <trkpt lat="44.4069" lon="6.84652">
        <ele>2817.76</ele>
        <time>2023-02-14T12:18:47Z</time>
      </trkpt>
      <trkpt lat="44.40694" lon="6.8466">
        <ele>2816.8</ele>
        <time>2023-02-14T12:20:15Z</time>
      </trkpt>
      <trkpt lat="44.40768" lon="6.84807">
        <ele>2746.14</ele>
        <time>2023-02-14T12:21:28Z</time>
      </trkpt>
      <trkpt lat="44.40802" lon="6.84835">
        <ele>2726.92</ele>
        <time>2023-02-14T12:22:14Z</time>
      </trkpt>
      <trkpt lat="44.40809" lon="6.8486">
        <ele>2712.98</ele>
        <time>2023-02-14T12:22:27Z</time>
      </trkpt>
      <trkpt lat="44.40802" lon="6.84876">
        <ele>2706.73</ele>
        <time>2023-02-14T12:22:36Z</time>
      </trkpt>
      <trkpt lat="44.40837" lon="6.84889">
        <ele>2697.12</ele>
        <time>2023-02-14T12:22:51Z</time>
      </trkpt>
      <trkpt lat="44.40884" lon="6.84912">
        <ele>2686.06</ele>
        <time>2023-02-14T12:23:17Z</time>
      </trkpt>
      <trkpt lat="44.40932" lon="6.84969">
        <ele>2664.91</ele>
        <time>2023-02-14T12:23:51Z</time>
      </trkpt>
      <trkpt lat="44.41" lon="6.85049">
        <ele>2654.82</ele>
        <time>2023-02-14T12:24:13Z</time>
      </trkpt>
      <trkpt lat="44.40996" lon="6.8505">
        <ele>2655.78</ele>
        <time>2023-02-14T12:25:58Z</time>
      </trkpt>
      <trkpt lat="44.40995" lon="6.8505">
        <ele>2655.78</ele>
        <time>2023-02-14T12:29:29Z</time>
      </trkpt>
      <trkpt lat="44.40996" lon="6.85059">
        <ele>2650.01</ele>
        <time>2023-02-14T12:30:47Z</time>
      </trkpt>
      <trkpt lat="44.41009" lon="6.85056">
        <ele>2644.72</ele>
        <time>2023-02-14T12:31:10Z</time>
      </trkpt>
      <trkpt lat="44.41132" lon="6.85211">
        <ele>2556.76</ele>
        <time>2023-02-14T12:32:30Z</time>
      </trkpt>
      <trkpt lat="44.41137" lon="6.85237">
        <ele>2551</ele>
        <time>2023-02-14T12:34:40Z</time>
      </trkpt>
      <trkpt lat="44.41406" lon="6.85423">
        <ele>2452.46</ele>
        <time>2023-02-14T12:35:49Z</time>
      </trkpt>
      <trkpt lat="44.41623" lon="6.8577">
        <ele>2317.88</ele>
        <time>2023-02-14T12:40:05Z</time>
      </trkpt>
      <trkpt lat="44.42027" lon="6.86074">
        <ele>2229.43</ele>
        <time>2023-02-14T12:43:07Z</time>
      </trkpt>
      <trkpt lat="44.42091" lon="6.86217">
        <ele>2186.66</ele>
        <time>2023-02-14T12:44:30Z</time>
      </trkpt>
      <trkpt lat="44.4223" lon="6.86362">
        <ele>2101.1</ele>
        <time>2023-02-14T12:48:34Z</time>
      </trkpt>
      <trkpt lat="44.42217" lon="6.86378">
        <ele>2096.77</ele>
        <time>2023-02-14T12:48:40Z</time>
      </trkpt>
      <trkpt lat="44.42258" lon="6.86391">
        <ele>2079.47</ele>
        <time>2023-02-14T12:49:03Z</time>
      </trkpt>
      <trkpt lat="44.42248" lon="6.86409">
        <ele>2072.26</ele>
        <time>2023-02-14T12:49:14Z</time>
      </trkpt>
      <trkpt lat="44.42263" lon="6.86412">
        <ele>2067.45</ele>
        <time>2023-02-14T12:49:22Z</time>
      </trkpt>
      <trkpt lat="44.42311" lon="6.8652">
        <ele>2021.79</ele>
        <time>2023-02-14T12:50:07Z</time>
      </trkpt>
      <trkpt lat="44.4232" lon="6.86547">
        <ele>2012.66</ele>
        <time>2023-02-14T12:50:21Z</time>
      </trkpt>
      <trkpt lat="44.42651" lon="6.86707">
        <ele>1963.15</ele>
        <time>2023-02-14T12:52:46Z</time>
      </trkpt>
      <trkpt lat="44.42666" lon="6.86722">
        <ele>1959.78</ele>
        <time>2023-02-14T12:52:51Z</time>
      </trkpt>
      <trkpt lat="44.42684" lon="6.86747">
        <ele>1955.46</ele>
        <time>2023-02-14T12:52:55Z</time>
      </trkpt>
      <trkpt lat="44.42697" lon="6.86765">
        <ele>1952.09</ele>
        <time>2023-02-14T12:52:58Z</time>
      </trkpt>
      <trkpt lat="44.42747" lon="6.86818">
        <ele>1945.85</ele>
        <time>2023-02-14T12:53:14Z</time>
      </trkpt>
      <trkpt lat="44.42749" lon="6.86819">
        <ele>1944.88</ele>
        <time>2023-02-14T12:54:58Z</time>
      </trkpt>
      <trkpt lat="44.42748" lon="6.86819">
        <ele>1943.44</ele>
        <time>2023-02-14T13:00:00Z</time>
      </trkpt>
      <trkpt lat="44.42747" lon="6.86818">
        <ele>1942.48</ele>
        <time>2023-02-14T13:08:19Z</time>
      </trkpt>
      <trkpt lat="44.4275" lon="6.86819">
        <ele>1942.96</ele>
        <time>2023-02-14T13:12:42Z</time>
      </trkpt>
      <trkpt lat="44.42747" lon="6.86818">
        <ele>1942.96</ele>
        <time>2023-02-14T13:15:15Z</time>
      </trkpt>
      <trkpt lat="44.42751" lon="6.86819">
        <ele>1942.48</ele>
        <time>2023-02-14T13:17:29Z</time>
      </trkpt>
      <trkpt lat="44.42768" lon="6.86829">
        <ele>1938.16</ele>
        <time>2023-02-14T13:17:38Z</time>
      </trkpt>
      <trkpt lat="44.42777" lon="6.86833">
        <ele>1933.83</ele>
        <time>2023-02-14T13:17:42Z</time>
      </trkpt>
      <trkpt lat="44.42792" lon="6.86828">
        <ele>1930.46</ele>
        <time>2023-02-14T13:17:47Z</time>
      </trkpt>
      <trkpt lat="44.4281" lon="6.86827">
        <ele>1927.1</ele>
        <time>2023-02-14T13:17:51Z</time>
      </trkpt>
      <trkpt lat="44.42813" lon="6.86845">
        <ele>1922.77</ele>
        <time>2023-02-14T13:17:53Z</time>
      </trkpt>
      <trkpt lat="44.42827" lon="6.8686">
        <ele>1918.45</ele>
        <time>2023-02-14T13:18:01Z</time>
      </trkpt>
      <trkpt lat="44.42858" lon="6.86837">
        <ele>1913.64</ele>
        <time>2023-02-14T13:18:13Z</time>
      </trkpt>
      <trkpt lat="44.42873" lon="6.86838">
        <ele>1911.24</ele>
        <time>2023-02-14T13:18:16Z</time>
      </trkpt>
      <trkpt lat="44.4289" lon="6.86837">
        <ele>1906.91</ele>
        <time>2023-02-14T13:18:20Z</time>
      </trkpt>
      <trkpt lat="44.42905" lon="6.8686">
        <ele>1894.42</ele>
        <time>2023-02-14T13:18:42Z</time>
      </trkpt>
      <trkpt lat="44.42962" lon="6.86989">
        <ele>1866.06</ele>
        <time>2023-02-14T13:19:22Z</time>
      </trkpt>
      <trkpt lat="44.42948" lon="6.8703">
        <ele>1857.89</ele>
        <time>2023-02-14T13:21:10Z</time>
      </trkpt>
      <trkpt lat="44.42976" lon="6.87097">
        <ele>1840.1</ele>
        <time>2023-02-14T13:21:38Z</time>
      </trkpt>
      <trkpt lat="44.43072" lon="6.87163">
        <ele>1805.49</ele>
        <time>2023-02-14T13:22:14Z</time>
      </trkpt>
      <trkpt lat="44.4308" lon="6.87152">
        <ele>1804.05</ele>
        <time>2023-02-14T13:22:17Z</time>
      </trkpt>
      <trkpt lat="44.43089" lon="6.87158">
        <ele>1800.69</ele>
        <time>2023-02-14T13:22:20Z</time>
      </trkpt>
      <trkpt lat="44.43088" lon="6.8717">
        <ele>1800.69</ele>
        <time>2023-02-14T13:22:22Z</time>
      </trkpt>
      <trkpt lat="44.43084" lon="6.87195">
        <ele>1797.8</ele>
        <time>2023-02-14T13:22:26Z</time>
      </trkpt>
      <trkpt lat="44.43087" lon="6.87189">
        <ele>1797.8</ele>
        <time>2023-02-14T13:22:33Z</time>
      </trkpt>
      <trkpt lat="44.43107" lon="6.87147">
        <ele>1796.36</ele>
        <time>2023-02-14T13:22:49Z</time>
      </trkpt>
      <trkpt lat="44.43135" lon="6.87105">
        <ele>1793.96</ele>
        <time>2023-02-14T13:23:02Z</time>
      </trkpt>
      <trkpt lat="44.43168" lon="6.87062">
        <ele>1790.11</ele>
        <time>2023-02-14T13:23:10Z</time>
      </trkpt>
      <trkpt lat="44.43204" lon="6.86999">
        <ele>1787.71</ele>
        <time>2023-02-14T13:23:22Z</time>
      </trkpt>
      <trkpt lat="44.43213" lon="6.86987">
        <ele>1788.67</ele>
        <time>2023-02-14T13:23:32Z</time>
      </trkpt>
      <trkpt lat="44.43238" lon="6.86953">
        <ele>1786.75</ele>
        <time>2023-02-14T13:23:44Z</time>
      </trkpt>
      <trkpt lat="44.43254" lon="6.8693">
        <ele>1785.31</ele>
        <time>2023-02-14T13:23:48Z</time>
      </trkpt>
      <trkpt lat="44.43279" lon="6.86889">
        <ele>1782.42</ele>
        <time>2023-02-14T13:23:54Z</time>
      </trkpt>
      <trkpt lat="44.43322" lon="6.86844">
        <ele>1778.58</ele>
        <time>2023-02-14T13:24:04Z</time>
      </trkpt>
      <trkpt lat="44.43348" lon="6.86823">
        <ele>1776.65</ele>
        <time>2023-02-14T13:24:09Z</time>
      </trkpt>
      <trkpt lat="44.43376" lon="6.86808">
        <ele>1772.81</ele>
        <time>2023-02-14T13:24:13Z</time>
      </trkpt>
      <trkpt lat="44.43402" lon="6.86784">
        <ele>1770.89</ele>
        <time>2023-02-14T13:24:17Z</time>
      </trkpt>
      <trkpt lat="44.43411" lon="6.86769">
        <ele>1769.92</ele>
        <time>2023-02-14T13:24:19Z</time>
      </trkpt>
      <trkpt lat="44.43426" lon="6.86736">
        <ele>1770.89</ele>
        <time>2023-02-14T13:24:28Z</time>
      </trkpt>
      <trkpt lat="44.43432" lon="6.86724">
        <ele>1771.37</ele>
        <time>2023-02-14T13:24:42Z</time>
      </trkpt>
      <trkpt lat="44.43436" lon="6.86711">
        <ele>1772.81</ele>
        <time>2023-02-14T13:24:55Z</time>
      </trkpt>
      <trkpt lat="44.43443" lon="6.86697">
        <ele>1774.73</ele>
        <time>2023-02-14T13:25:15Z</time>
      </trkpt>
      <trkpt lat="44.43477" lon="6.8666">
        <ele>1773.29</ele>
        <time>2023-02-14T13:25:38Z</time>
      </trkpt>
      <trkpt lat="44.43493" lon="6.86646">
        <ele>1770.89</ele>
        <time>2023-02-14T13:25:41Z</time>
      </trkpt>
      <trkpt lat="44.43503" lon="6.8663">
        <ele>1769.92</ele>
        <time>2023-02-14T13:25:43Z</time>
      </trkpt>
      <trkpt lat="44.43511" lon="6.86612">
        <ele>1768.96</ele>
        <time>2023-02-14T13:25:46Z</time>
      </trkpt>
      <trkpt lat="44.4352" lon="6.86605">
        <ele>1768.48</ele>
        <time>2023-02-14T13:25:48Z</time>
      </trkpt>
      <trkpt lat="44.43526" lon="6.86631">
        <ele>1765.12</ele>
        <time>2023-02-14T13:25:52Z</time>
      </trkpt>
      <trkpt lat="44.43523" lon="6.8666">
        <ele>1762.23</ele>
        <time>2023-02-14T13:25:58Z</time>
      </trkpt>
      <trkpt lat="44.43533" lon="6.86656">
        <ele>1759.83</ele>
        <time>2023-02-14T13:26:00Z</time>
      </trkpt>
      <trkpt lat="44.43545" lon="6.86645">
        <ele>1757.91</ele>
        <time>2023-02-14T13:26:02Z</time>
      </trkpt>
      <trkpt lat="44.43555" lon="6.86625">
        <ele>1755.5</ele>
        <time>2023-02-14T13:26:04Z</time>
      </trkpt>
      <trkpt lat="44.4357" lon="6.86585">
        <ele>1751.18</ele>
        <time>2023-02-14T13:26:08Z</time>
      </trkpt>
      <trkpt lat="44.43578" lon="6.86564">
        <ele>1750.22</ele>
        <time>2023-02-14T13:26:10Z</time>
      </trkpt>
      <trkpt lat="44.43595" lon="6.86518">
        <ele>1747.81</ele>
        <time>2023-02-14T13:26:15Z</time>
      </trkpt>
      <trkpt lat="44.43619" lon="6.86466">
        <ele>1744.45</ele>
        <time>2023-02-14T13:26:22Z</time>
      </trkpt>
      <trkpt lat="44.43625" lon="6.8645">
        <ele>1743.49</ele>
        <time>2023-02-14T13:26:24Z</time>
      </trkpt>
      <trkpt lat="44.43638" lon="6.86402">
        <ele>1740.6</ele>
        <time>2023-02-14T13:26:31Z</time>
      </trkpt>
      <trkpt lat="44.43656" lon="6.86366">
        <ele>1742.05</ele>
        <time>2023-02-14T13:26:40Z</time>
      </trkpt>
      <trkpt lat="44.43673" lon="6.8635">
        <ele>1740.6</ele>
        <time>2023-02-14T13:26:45Z</time>
      </trkpt>
      <trkpt lat="44.43711" lon="6.86317">
        <ele>1737.24</ele>
        <time>2023-02-14T13:26:53Z</time>
      </trkpt>
      <trkpt lat="44.43722" lon="6.86309">
        <ele>1736.28</ele>
        <time>2023-02-14T13:26:55Z</time>
      </trkpt>
      <trkpt lat="44.43731" lon="6.86302">
        <ele>1734.84</ele>
        <time>2023-02-14T13:26:57Z</time>
      </trkpt>
      <trkpt lat="44.43756" lon="6.86266">
        <ele>1732.43</ele>
        <time>2023-02-14T13:27:51Z</time>
      </trkpt>
      <trkpt lat="44.43774" lon="6.8624">
        <ele>1731.47</ele>
        <time>2023-02-14T13:27:56Z</time>
      </trkpt>
      <trkpt lat="44.43799" lon="6.86208">
        <ele>1729.07</ele>
        <time>2023-02-14T13:28:02Z</time>
      </trkpt>
      <trkpt lat="44.43861" lon="6.86152">
        <ele>1725.7</ele>
        <time>2023-02-14T13:28:16Z</time>
      </trkpt>
      <trkpt lat="44.43906" lon="6.8612">
        <ele>1722.82</ele>
        <time>2023-02-14T13:28:26Z</time>
      </trkpt>
      <trkpt lat="44.43944" lon="6.86059">
        <ele>1718.49</ele>
        <time>2023-02-14T13:28:36Z</time>
      </trkpt>
      <trkpt lat="44.43952" lon="6.86046">
        <ele>1717.53</ele>
        <time>2023-02-14T13:28:38Z</time>
      </trkpt>
      <trkpt lat="44.43978" lon="6.86011">
        <ele>1715.61</ele>
        <time>2023-02-14T13:28:44Z</time>
      </trkpt>
      <trkpt lat="44.43996" lon="6.85993">
        <ele>1714.65</ele>
        <time>2023-02-14T13:28:48Z</time>
      </trkpt>
      <trkpt lat="44.44005" lon="6.85987">
        <ele>1714.17</ele>
        <time>2023-02-14T13:28:50Z</time>
      </trkpt>
      <trkpt lat="44.44061" lon="6.85932">
        <ele>1711.76</ele>
        <time>2023-02-14T13:29:05Z</time>
      </trkpt>
      <trkpt lat="44.4409" lon="6.85874">
        <ele>1709.36</ele>
        <time>2023-02-14T13:29:17Z</time>
      </trkpt>
      <trkpt lat="44.44125" lon="6.85816">
        <ele>1706.96</ele>
        <time>2023-02-14T13:29:29Z</time>
      </trkpt>
      <trkpt lat="44.44158" lon="6.8579">
        <ele>1706.48</ele>
        <time>2023-02-14T13:29:41Z</time>
      </trkpt>
      <trkpt lat="44.44183" lon="6.85776">
        <ele>1706</ele>
        <time>2023-02-14T13:29:54Z</time>
      </trkpt>
      <trkpt lat="44.44213" lon="6.85739">
        <ele>1704.55</ele>
        <time>2023-02-14T13:30:10Z</time>
      </trkpt>
      <trkpt lat="44.44241" lon="6.85707">
        <ele>1704.55</ele>
        <time>2023-02-14T13:30:24Z</time>
      </trkpt>
      <trkpt lat="44.44248" lon="6.85698">
        <ele>1704.55</ele>
        <time>2023-02-14T13:30:28Z</time>
      </trkpt>
      <trkpt lat="44.44254" lon="6.85689">
        <ele>1704.55</ele>
        <time>2023-02-14T13:30:34Z</time>
      </trkpt>
      <trkpt lat="44.44268" lon="6.85664">
        <ele>1704.07</ele>
        <time>2023-02-14T13:30:49Z</time>
      </trkpt>
      <trkpt lat="44.44282" lon="6.8564">
        <ele>1704.07</ele>
        <time>2023-02-14T13:31:03Z</time>
      </trkpt>
      <trkpt lat="44.44301" lon="6.85601">
        <ele>1703.11</ele>
        <time>2023-02-14T13:31:17Z</time>
      </trkpt>
      <trkpt lat="44.44327" lon="6.85561">
        <ele>1701.19</ele>
        <time>2023-02-14T13:31:30Z</time>
      </trkpt>
      <trkpt lat="44.44335" lon="6.8555">
        <ele>1701.19</ele>
        <time>2023-02-14T13:31:33Z</time>
      </trkpt>
      <trkpt lat="44.44343" lon="6.85539">
        <ele>1701.19</ele>
        <time>2023-02-14T13:31:36Z</time>
      </trkpt>
      <trkpt lat="44.44388" lon="6.85487">
        <ele>1699.27</ele>
        <time>2023-02-14T13:31:51Z</time>
      </trkpt>
      <trkpt lat="44.44425" lon="6.85449">
        <ele>1697.34</ele>
        <time>2023-02-14T13:32:02Z</time>
      </trkpt>
      <trkpt lat="44.44455" lon="6.85422">
        <ele>1696.86</ele>
        <time>2023-02-14T13:32:13Z</time>
      </trkpt>
      <trkpt lat="44.44492" lon="6.85396">
        <ele>1695.42</ele>
        <time>2023-02-14T13:32:25Z</time>
      </trkpt>
      <trkpt lat="44.44534" lon="6.85358">
        <ele>1693.98</ele>
        <time>2023-02-14T13:32:40Z</time>
      </trkpt>
      <trkpt lat="44.44548" lon="6.85337">
        <ele>1693.5</ele>
        <time>2023-02-14T13:32:47Z</time>
      </trkpt>
      <trkpt lat="44.44543" lon="6.85326">
        <ele>1693.5</ele>
        <time>2023-02-14T13:32:51Z</time>
      </trkpt>
      <trkpt lat="44.44531" lon="6.85311">
        <ele>1693.5</ele>
        <time>2023-02-14T13:33:04Z</time>
      </trkpt>
      <trkpt lat="44.44526" lon="6.853">
        <ele>1693.5</ele>
        <time>2023-02-14T13:33:11Z</time>
      </trkpt>
      <trkpt lat="44.44524" lon="6.85281">
        <ele>1693.5</ele>
        <time>2023-02-14T13:33:25Z</time>
      </trkpt>
      <trkpt lat="44.4455" lon="6.85271">
        <ele>1693.02</ele>
        <time>2023-02-14T13:33:35Z</time>
      </trkpt>
      <trkpt lat="44.44587" lon="6.85285">
        <ele>1692.06</ele>
        <time>2023-02-14T13:33:49Z</time>
      </trkpt>
      <trkpt lat="44.44616" lon="6.85283">
        <ele>1691.1</ele>
        <time>2023-02-14T13:34:00Z</time>
      </trkpt>
      <trkpt lat="44.44626" lon="6.85279">
        <ele>1692.06</ele>
        <time>2023-02-14T13:34:10Z</time>
      </trkpt>
      <trkpt lat="44.44632" lon="6.85276">
        <ele>1680.52</ele>
        <time>2023-02-14T13:35:12Z</time>
      </trkpt>
      <trkpt lat="44.44637" lon="6.85279">
        <ele>1691.1</ele>
        <time>2023-02-14T13:35:51Z</time>
      </trkpt>
      <trkpt lat="44.44657" lon="6.85269">
        <ele>1691.1</ele>
        <time>2023-02-14T13:36:00Z</time>
      </trkpt>
      <trkpt lat="44.44686" lon="6.85241">
        <ele>1690.62</ele>
        <time>2023-02-14T13:36:11Z</time>
      </trkpt>
      <trkpt lat="44.44708" lon="6.85221">
        <ele>1690.14</ele>
        <time>2023-02-14T13:36:22Z</time>
      </trkpt>
      <trkpt lat="44.4472" lon="6.85216">
        <ele>1690.14</ele>
        <time>2023-02-14T13:36:38Z</time>
      </trkpt>
      <trkpt lat="44.44738" lon="6.85217">
        <ele>1689.17</ele>
        <time>2023-02-14T13:36:48Z</time>
      </trkpt>
      <trkpt lat="44.44761" lon="6.85216">
        <ele>1689.17</ele>
        <time>2023-02-14T13:37:00Z</time>
      </trkpt>
      <trkpt lat="44.44781" lon="6.85215">
        <ele>1688.69</ele>
        <time>2023-02-14T13:37:11Z</time>
      </trkpt>
      <trkpt lat="44.44789" lon="6.8521">
        <ele>1690.14</ele>
        <time>2023-02-14T13:37:26Z</time>
      </trkpt>
      <trkpt lat="44.44797" lon="6.85203">
        <ele>1691.58</ele>
        <time>2023-02-14T13:37:42Z</time>
      </trkpt>
      <trkpt lat="44.44805" lon="6.85185">
        <ele>1691.1</ele>
        <time>2023-02-14T13:37:50Z</time>
      </trkpt>
      <trkpt lat="44.44822" lon="6.85119">
        <ele>1688.69</ele>
        <time>2023-02-14T13:38:15Z</time>
      </trkpt>
      <trkpt lat="44.44828" lon="6.85104">
        <ele>1690.14</ele>
        <time>2023-02-14T13:38:29Z</time>
      </trkpt>
      <trkpt lat="44.44834" lon="6.85087">
        <ele>1690.62</ele>
        <time>2023-02-14T13:38:44Z</time>
      </trkpt>
      <trkpt lat="44.4484" lon="6.8507">
        <ele>1691.1</ele>
        <time>2023-02-14T13:39:02Z</time>
      </trkpt>
      <trkpt lat="44.44846" lon="6.85058">
        <ele>1691.58</ele>
        <time>2023-02-14T13:39:15Z</time>
      </trkpt>
      <trkpt lat="44.44851" lon="6.85047">
        <ele>1692.06</ele>
        <time>2023-02-14T13:39:27Z</time>
      </trkpt>
      <trkpt lat="44.44856" lon="6.85036">
        <ele>1692.54</ele>
        <time>2023-02-14T13:39:39Z</time>
      </trkpt>
      <trkpt lat="44.44868" lon="6.85021">
        <ele>1693.02</ele>
        <time>2023-02-14T13:40:02Z</time>
      </trkpt>
      <trkpt lat="44.44875" lon="6.85007">
        <ele>1693.5</ele>
        <time>2023-02-14T13:40:23Z</time>
      </trkpt>
      <trkpt lat="44.44885" lon="6.84995">
        <ele>1693.98</ele>
        <time>2023-02-14T13:40:40Z</time>
      </trkpt>
      <trkpt lat="44.449" lon="6.84977">
        <ele>1694.94</ele>
        <time>2023-02-14T13:41:03Z</time>
      </trkpt>
      <trkpt lat="44.44913" lon="6.84964">
        <ele>1694.94</ele>
        <time>2023-02-14T13:41:27Z</time>
      </trkpt>
      <trkpt lat="44.44925" lon="6.84951">
        <ele>1695.9</ele>
        <time>2023-02-14T13:41:50Z</time>
      </trkpt>
      <trkpt lat="44.4494" lon="6.84941">
        <ele>1695.9</ele>
        <time>2023-02-14T13:42:14Z</time>
      </trkpt>
      <trkpt lat="44.44948" lon="6.84934">
        <ele>1696.86</ele>
        <time>2023-02-14T13:42:26Z</time>
      </trkpt>
      <trkpt lat="44.44958" lon="6.84925">
        <ele>1697.34</ele>
        <time>2023-02-14T13:42:39Z</time>
      </trkpt>
      <trkpt lat="44.4497" lon="6.8491">
        <ele>1697.34</ele>
        <time>2023-02-14T13:42:56Z</time>
      </trkpt>
      <trkpt lat="44.44979" lon="6.84902">
        <ele>1697.83</ele>
        <time>2023-02-14T13:43:21Z</time>
      </trkpt>
      <trkpt lat="44.44985" lon="6.84892">
        <ele>1698.31</ele>
        <time>2023-02-14T13:43:37Z</time>
      </trkpt>
      <trkpt lat="44.44995" lon="6.84879">
        <ele>1698.79</ele>
        <time>2023-02-14T13:44:09Z</time>
      </trkpt>
      <trkpt lat="44.45004" lon="6.84871">
        <ele>1698.31</ele>
        <time>2023-02-14T13:44:23Z</time>
      </trkpt>
      <trkpt lat="44.45011" lon="6.84876">
        <ele>1696.38</ele>
        <time>2023-02-14T13:47:45Z</time>
      </trkpt>
      <trkpt lat="44.45011" lon="6.84876">
        <ele>1698.31</ele>
        <time>2023-02-14T13:48:47Z</time>
      </trkpt>
    </trkseg>
  </trk>
</gpx>